<?xml version="1.0" encoding="UTF-8" standalone="no" ?>
<gpx xmlns="http://www.topografix.com/GPX/1/1" xmlns:xsi="http://www.w3.org/2001/XMLSchema-instance" xsi:schemaLocation="http://www.topografix.com/GPX/1/1 http://www.topografix.com/GPX/1/1/gpx.xsd" version="1.1" creator="VisuGPX - https://www.visugpx.com">
  <metadata>
    <name>2025-01-31  Randonnée TwoNav</name>
    <desc><![CDATA[2025-01-31_142619.trk]]></desc>
  </metadata>
  <trk>
    <name><![CDATA[2025-01-31  Randonnée TwoNav_1]]></name>
    <trkseg>
      <trkpt lat="48.19582" lon="6.85527">
        <ele>488.3</ele>
        <time>2025-01-31T13:26:19Z</time>
      </trkpt>
      <trkpt lat="48.19578" lon="6.8552">
        <ele>488.3</ele>
        <time>2025-01-31T13:26:20Z</time>
      </trkpt>
      <trkpt lat="48.19573" lon="6.85514">
        <ele>488.3</ele>
        <time>2025-01-31T13:26:21Z</time>
      </trkpt>
      <trkpt lat="48.19569" lon="6.85508">
        <ele>488.4</ele>
        <time>2025-01-31T13:26:28Z</time>
      </trkpt>
      <trkpt lat="48.19565" lon="6.85502">
        <ele>488.4</ele>
        <time>2025-01-31T13:26:37Z</time>
      </trkpt>
      <trkpt lat="48.1956" lon="6.85496">
        <ele>488.4</ele>
        <time>2025-01-31T13:26:43Z</time>
      </trkpt>
      <trkpt lat="48.19556" lon="6.8549">
        <ele>488.4</ele>
        <time>2025-01-31T13:26:52Z</time>
      </trkpt>
      <trkpt lat="48.19551" lon="6.85485">
        <ele>488.4</ele>
        <time>2025-01-31T13:27:07Z</time>
      </trkpt>
      <trkpt lat="48.19547" lon="6.85479">
        <ele>488.4</ele>
        <time>2025-01-31T13:27:07Z</time>
      </trkpt>
      <trkpt lat="48.19544" lon="6.85466">
        <ele>488.3</ele>
        <time>2025-01-31T13:27:11Z</time>
      </trkpt>
      <trkpt lat="48.19539" lon="6.85452">
        <ele>488.2</ele>
        <time>2025-01-31T13:27:16Z</time>
      </trkpt>
      <trkpt lat="48.19529" lon="6.85442">
        <ele>488.1</ele>
        <time>2025-01-31T13:27:21Z</time>
      </trkpt>
      <trkpt lat="48.19522" lon="6.85417">
        <ele>487.9</ele>
        <time>2025-01-31T13:27:33Z</time>
      </trkpt>
      <trkpt lat="48.19517" lon="6.85404">
        <ele>487.8</ele>
        <time>2025-01-31T13:27:39Z</time>
      </trkpt>
      <trkpt lat="48.1952" lon="6.85391">
        <ele>487.6</ele>
        <time>2025-01-31T13:27:49Z</time>
      </trkpt>
      <trkpt lat="48.19529" lon="6.85384">
        <ele>487.3</ele>
        <time>2025-01-31T13:27:55Z</time>
      </trkpt>
      <trkpt lat="48.19536" lon="6.85375">
        <ele>487.1</ele>
        <time>2025-01-31T13:28:01Z</time>
      </trkpt>
      <trkpt lat="48.19543" lon="6.85366">
        <ele>487</ele>
        <time>2025-01-31T13:28:07Z</time>
      </trkpt>
      <trkpt lat="48.19548" lon="6.85352">
        <ele>486.9</ele>
        <time>2025-01-31T13:28:14Z</time>
      </trkpt>
      <trkpt lat="48.19551" lon="6.85339">
        <ele>486.8</ele>
        <time>2025-01-31T13:28:22Z</time>
      </trkpt>
      <trkpt lat="48.19541" lon="6.85334">
        <ele>486.7</ele>
        <time>2025-01-31T13:28:32Z</time>
      </trkpt>
      <trkpt lat="48.19532" lon="6.85328">
        <ele>486.6</ele>
        <time>2025-01-31T13:28:41Z</time>
      </trkpt>
      <trkpt lat="48.19524" lon="6.85316">
        <ele>486.4</ele>
        <time>2025-01-31T13:28:51Z</time>
      </trkpt>
      <trkpt lat="48.19516" lon="6.85312">
        <ele>486.3</ele>
        <time>2025-01-31T13:28:58Z</time>
      </trkpt>
      <trkpt lat="48.19498" lon="6.85287">
        <ele>486.3</ele>
        <time>2025-01-31T13:29:15Z</time>
      </trkpt>
      <trkpt lat="48.19494" lon="6.8527">
        <ele>486.3</ele>
        <time>2025-01-31T13:29:24Z</time>
      </trkpt>
      <trkpt lat="48.19491" lon="6.85257">
        <ele>486.3</ele>
        <time>2025-01-31T13:29:31Z</time>
      </trkpt>
      <trkpt lat="48.1949" lon="6.85244">
        <ele>486.3</ele>
        <time>2025-01-31T13:29:39Z</time>
      </trkpt>
      <trkpt lat="48.19488" lon="6.8523">
        <ele>486.2</ele>
        <time>2025-01-31T13:29:46Z</time>
      </trkpt>
      <trkpt lat="48.19486" lon="6.85216">
        <ele>486.1</ele>
        <time>2025-01-31T13:29:55Z</time>
      </trkpt>
      <trkpt lat="48.19484" lon="6.85202">
        <ele>486</ele>
        <time>2025-01-31T13:30:02Z</time>
      </trkpt>
      <trkpt lat="48.19481" lon="6.85188">
        <ele>485.8</ele>
        <time>2025-01-31T13:30:09Z</time>
      </trkpt>
      <trkpt lat="48.19478" lon="6.85174">
        <ele>485.7</ele>
        <time>2025-01-31T13:30:17Z</time>
      </trkpt>
      <trkpt lat="48.19476" lon="6.85159">
        <ele>485.6</ele>
        <time>2025-01-31T13:30:24Z</time>
      </trkpt>
      <trkpt lat="48.19473" lon="6.85146">
        <ele>485.5</ele>
        <time>2025-01-31T13:30:33Z</time>
      </trkpt>
      <trkpt lat="48.1947" lon="6.85131">
        <ele>485.5</ele>
        <time>2025-01-31T13:30:42Z</time>
      </trkpt>
      <trkpt lat="48.19468" lon="6.85118">
        <ele>485.5</ele>
        <time>2025-01-31T13:30:49Z</time>
      </trkpt>
      <trkpt lat="48.19467" lon="6.85105">
        <ele>485.6</ele>
        <time>2025-01-31T13:30:56Z</time>
      </trkpt>
      <trkpt lat="48.19465" lon="6.85091">
        <ele>485.7</ele>
        <time>2025-01-31T13:31:03Z</time>
      </trkpt>
      <trkpt lat="48.19463" lon="6.85078">
        <ele>485.8</ele>
        <time>2025-01-31T13:31:10Z</time>
      </trkpt>
      <trkpt lat="48.19462" lon="6.85063">
        <ele>485.8</ele>
        <time>2025-01-31T13:31:18Z</time>
      </trkpt>
      <trkpt lat="48.19461" lon="6.8505">
        <ele>485.9</ele>
        <time>2025-01-31T13:31:27Z</time>
      </trkpt>
      <trkpt lat="48.19459" lon="6.85035">
        <ele>485.9</ele>
        <time>2025-01-31T13:31:35Z</time>
      </trkpt>
      <trkpt lat="48.19458" lon="6.85022">
        <ele>485.9</ele>
        <time>2025-01-31T13:31:43Z</time>
      </trkpt>
      <trkpt lat="48.19456" lon="6.85008">
        <ele>486</ele>
        <time>2025-01-31T13:31:50Z</time>
      </trkpt>
      <trkpt lat="48.19455" lon="6.84993">
        <ele>486.2</ele>
        <time>2025-01-31T13:31:58Z</time>
      </trkpt>
      <trkpt lat="48.19455" lon="6.84979">
        <ele>486.3</ele>
        <time>2025-01-31T13:32:07Z</time>
      </trkpt>
      <trkpt lat="48.19453" lon="6.84965">
        <ele>486.4</ele>
        <time>2025-01-31T13:32:14Z</time>
      </trkpt>
      <trkpt lat="48.19451" lon="6.84951">
        <ele>486.5</ele>
        <time>2025-01-31T13:32:22Z</time>
      </trkpt>
      <trkpt lat="48.19448" lon="6.84936">
        <ele>486.6</ele>
        <time>2025-01-31T13:32:29Z</time>
      </trkpt>
      <trkpt lat="48.19445" lon="6.84924">
        <ele>486.7</ele>
        <time>2025-01-31T13:32:35Z</time>
      </trkpt>
      <trkpt lat="48.19443" lon="6.84909">
        <ele>486.7</ele>
        <time>2025-01-31T13:32:42Z</time>
      </trkpt>
      <trkpt lat="48.19442" lon="6.84895">
        <ele>486.8</ele>
        <time>2025-01-31T13:32:49Z</time>
      </trkpt>
      <trkpt lat="48.1944" lon="6.84882">
        <ele>486.9</ele>
        <time>2025-01-31T13:32:57Z</time>
      </trkpt>
      <trkpt lat="48.19438" lon="6.84869">
        <ele>487</ele>
        <time>2025-01-31T13:33:04Z</time>
      </trkpt>
      <trkpt lat="48.19436" lon="6.84854">
        <ele>487.2</ele>
        <time>2025-01-31T13:33:11Z</time>
      </trkpt>
      <trkpt lat="48.19435" lon="6.84841">
        <ele>487.2</ele>
        <time>2025-01-31T13:33:18Z</time>
      </trkpt>
      <trkpt lat="48.19438" lon="6.84827">
        <ele>487.2</ele>
        <time>2025-01-31T13:33:27Z</time>
      </trkpt>
      <trkpt lat="48.19438" lon="6.84813">
        <ele>487.2</ele>
        <time>2025-01-31T13:33:34Z</time>
      </trkpt>
      <trkpt lat="48.19436" lon="6.84797">
        <ele>487.2</ele>
        <time>2025-01-31T13:33:40Z</time>
      </trkpt>
      <trkpt lat="48.1944" lon="6.84784">
        <ele>487.2</ele>
        <time>2025-01-31T13:33:50Z</time>
      </trkpt>
      <trkpt lat="48.19441" lon="6.8477">
        <ele>487.1</ele>
        <time>2025-01-31T13:33:59Z</time>
      </trkpt>
      <trkpt lat="48.19443" lon="6.84756">
        <ele>487</ele>
        <time>2025-01-31T13:34:07Z</time>
      </trkpt>
      <trkpt lat="48.19444" lon="6.84741">
        <ele>486.9</ele>
        <time>2025-01-31T13:34:14Z</time>
      </trkpt>
      <trkpt lat="48.19444" lon="6.84727">
        <ele>486.8</ele>
        <time>2025-01-31T13:34:21Z</time>
      </trkpt>
      <trkpt lat="48.19446" lon="6.84713">
        <ele>486.8</ele>
        <time>2025-01-31T13:34:30Z</time>
      </trkpt>
      <trkpt lat="48.19448" lon="6.84699">
        <ele>486.9</ele>
        <time>2025-01-31T13:34:39Z</time>
      </trkpt>
      <trkpt lat="48.19447" lon="6.84683">
        <ele>487</ele>
        <time>2025-01-31T13:34:47Z</time>
      </trkpt>
      <trkpt lat="48.19447" lon="6.84669">
        <ele>487.2</ele>
        <time>2025-01-31T13:34:53Z</time>
      </trkpt>
      <trkpt lat="48.19449" lon="6.84655">
        <ele>487.4</ele>
        <time>2025-01-31T13:35:00Z</time>
      </trkpt>
      <trkpt lat="48.19449" lon="6.84641">
        <ele>487.6</ele>
        <time>2025-01-31T13:35:07Z</time>
      </trkpt>
      <trkpt lat="48.1945" lon="6.84627">
        <ele>487.8</ele>
        <time>2025-01-31T13:35:15Z</time>
      </trkpt>
      <trkpt lat="48.19443" lon="6.84618">
        <ele>488.6</ele>
        <time>2025-01-31T13:35:24Z</time>
      </trkpt>
      <trkpt lat="48.19434" lon="6.84615">
        <ele>489.1</ele>
        <time>2025-01-31T13:35:34Z</time>
      </trkpt>
      <trkpt lat="48.19424" lon="6.84618">
        <ele>489.6</ele>
        <time>2025-01-31T13:35:46Z</time>
      </trkpt>
      <trkpt lat="48.19415" lon="6.84611">
        <ele>490.2</ele>
        <time>2025-01-31T13:35:53Z</time>
      </trkpt>
      <trkpt lat="48.19406" lon="6.84607">
        <ele>490.7</ele>
        <time>2025-01-31T13:36:01Z</time>
      </trkpt>
      <trkpt lat="48.19397" lon="6.846">
        <ele>491.3</ele>
        <time>2025-01-31T13:36:09Z</time>
      </trkpt>
      <trkpt lat="48.19388" lon="6.84594">
        <ele>491.9</ele>
        <time>2025-01-31T13:36:16Z</time>
      </trkpt>
      <trkpt lat="48.19379" lon="6.84587">
        <ele>492.5</ele>
        <time>2025-01-31T13:36:24Z</time>
      </trkpt>
      <trkpt lat="48.1937" lon="6.84587">
        <ele>492.9</ele>
        <time>2025-01-31T13:36:33Z</time>
      </trkpt>
      <trkpt lat="48.19362" lon="6.8458">
        <ele>493.3</ele>
        <time>2025-01-31T13:36:40Z</time>
      </trkpt>
      <trkpt lat="48.19354" lon="6.84573">
        <ele>493.7</ele>
        <time>2025-01-31T13:36:47Z</time>
      </trkpt>
      <trkpt lat="48.19345" lon="6.84567">
        <ele>493.9</ele>
        <time>2025-01-31T13:36:55Z</time>
      </trkpt>
      <trkpt lat="48.19336" lon="6.84562">
        <ele>494.1</ele>
        <time>2025-01-31T13:37:03Z</time>
      </trkpt>
      <trkpt lat="48.19327" lon="6.84562">
        <ele>494.2</ele>
        <time>2025-01-31T13:37:10Z</time>
      </trkpt>
      <trkpt lat="48.19317" lon="6.84559">
        <ele>494.3</ele>
        <time>2025-01-31T13:37:19Z</time>
      </trkpt>
      <trkpt lat="48.19308" lon="6.84554">
        <ele>494.4</ele>
        <time>2025-01-31T13:37:26Z</time>
      </trkpt>
      <trkpt lat="48.193" lon="6.84545">
        <ele>494.5</ele>
        <time>2025-01-31T13:37:32Z</time>
      </trkpt>
      <trkpt lat="48.19294" lon="6.84536">
        <ele>494.6</ele>
        <time>2025-01-31T13:37:38Z</time>
      </trkpt>
      <trkpt lat="48.19289" lon="6.84523">
        <ele>494.7</ele>
        <time>2025-01-31T13:37:43Z</time>
      </trkpt>
      <trkpt lat="48.19283" lon="6.8451">
        <ele>494.8</ele>
        <time>2025-01-31T13:37:49Z</time>
      </trkpt>
      <trkpt lat="48.19278" lon="6.84497">
        <ele>494.8</ele>
        <time>2025-01-31T13:37:55Z</time>
      </trkpt>
      <trkpt lat="48.19274" lon="6.84485">
        <ele>494.8</ele>
        <time>2025-01-31T13:38:01Z</time>
      </trkpt>
      <trkpt lat="48.19268" lon="6.84474">
        <ele>494.9</ele>
        <time>2025-01-31T13:38:09Z</time>
      </trkpt>
      <trkpt lat="48.19262" lon="6.84463">
        <ele>494.9</ele>
        <time>2025-01-31T13:38:18Z</time>
      </trkpt>
      <trkpt lat="48.19255" lon="6.84453">
        <ele>495</ele>
        <time>2025-01-31T13:38:27Z</time>
      </trkpt>
      <trkpt lat="48.19249" lon="6.84441">
        <ele>494.9</ele>
        <time>2025-01-31T13:38:35Z</time>
      </trkpt>
      <trkpt lat="48.19246" lon="6.84427">
        <ele>494.8</ele>
        <time>2025-01-31T13:38:42Z</time>
      </trkpt>
      <trkpt lat="48.19243" lon="6.84412">
        <ele>494.6</ele>
        <time>2025-01-31T13:38:49Z</time>
      </trkpt>
      <trkpt lat="48.19242" lon="6.84399">
        <ele>494.6</ele>
        <time>2025-01-31T13:38:55Z</time>
      </trkpt>
      <trkpt lat="48.1924" lon="6.84386">
        <ele>494.5</ele>
        <time>2025-01-31T13:39:02Z</time>
      </trkpt>
      <trkpt lat="48.1924" lon="6.84372">
        <ele>494.5</ele>
        <time>2025-01-31T13:39:09Z</time>
      </trkpt>
      <trkpt lat="48.19238" lon="6.84357">
        <ele>494.5</ele>
        <time>2025-01-31T13:39:17Z</time>
      </trkpt>
      <trkpt lat="48.19234" lon="6.84343">
        <ele>494.6</ele>
        <time>2025-01-31T13:39:26Z</time>
      </trkpt>
      <trkpt lat="48.19232" lon="6.84328">
        <ele>494.7</ele>
        <time>2025-01-31T13:39:39Z</time>
      </trkpt>
      <trkpt lat="48.1923" lon="6.84314">
        <ele>494.9</ele>
        <time>2025-01-31T13:39:45Z</time>
      </trkpt>
      <trkpt lat="48.19227" lon="6.843">
        <ele>495.2</ele>
        <time>2025-01-31T13:39:51Z</time>
      </trkpt>
      <trkpt lat="48.19226" lon="6.84286">
        <ele>495.6</ele>
        <time>2025-01-31T13:39:57Z</time>
      </trkpt>
      <trkpt lat="48.19223" lon="6.84272">
        <ele>496.2</ele>
        <time>2025-01-31T13:40:03Z</time>
      </trkpt>
      <trkpt lat="48.19219" lon="6.8426">
        <ele>496.8</ele>
        <time>2025-01-31T13:40:11Z</time>
      </trkpt>
      <trkpt lat="48.19213" lon="6.84249">
        <ele>497.4</ele>
        <time>2025-01-31T13:40:19Z</time>
      </trkpt>
      <trkpt lat="48.19206" lon="6.84237">
        <ele>498.1</ele>
        <time>2025-01-31T13:40:26Z</time>
      </trkpt>
      <trkpt lat="48.19199" lon="6.84227">
        <ele>498.9</ele>
        <time>2025-01-31T13:40:34Z</time>
      </trkpt>
      <trkpt lat="48.19191" lon="6.84218">
        <ele>499.8</ele>
        <time>2025-01-31T13:40:45Z</time>
      </trkpt>
      <trkpt lat="48.19183" lon="6.8421">
        <ele>500.7</ele>
        <time>2025-01-31T13:40:54Z</time>
      </trkpt>
      <trkpt lat="48.19176" lon="6.84202">
        <ele>501.4</ele>
        <time>2025-01-31T13:41:01Z</time>
      </trkpt>
      <trkpt lat="48.19167" lon="6.84195">
        <ele>502.3</ele>
        <time>2025-01-31T13:41:12Z</time>
      </trkpt>
      <trkpt lat="48.19158" lon="6.84187">
        <ele>503.1</ele>
        <time>2025-01-31T13:41:20Z</time>
      </trkpt>
      <trkpt lat="48.19149" lon="6.8418">
        <ele>503.9</ele>
        <time>2025-01-31T13:41:28Z</time>
      </trkpt>
      <trkpt lat="48.19141" lon="6.84172">
        <ele>504.7</ele>
        <time>2025-01-31T13:41:33Z</time>
      </trkpt>
      <trkpt lat="48.19132" lon="6.84167">
        <ele>505.5</ele>
        <time>2025-01-31T13:41:42Z</time>
      </trkpt>
      <trkpt lat="48.19122" lon="6.84163">
        <ele>506.4</ele>
        <time>2025-01-31T13:41:50Z</time>
      </trkpt>
      <trkpt lat="48.19113" lon="6.84163">
        <ele>507.3</ele>
        <time>2025-01-31T13:41:58Z</time>
      </trkpt>
      <trkpt lat="48.19104" lon="6.84158">
        <ele>508.3</ele>
        <time>2025-01-31T13:42:05Z</time>
      </trkpt>
      <trkpt lat="48.19096" lon="6.8415">
        <ele>509.3</ele>
        <time>2025-01-31T13:42:11Z</time>
      </trkpt>
      <trkpt lat="48.19087" lon="6.84146">
        <ele>510.2</ele>
        <time>2025-01-31T13:42:22Z</time>
      </trkpt>
      <trkpt lat="48.19079" lon="6.84141">
        <ele>511.1</ele>
        <time>2025-01-31T13:42:30Z</time>
      </trkpt>
      <trkpt lat="48.19072" lon="6.84131">
        <ele>512</ele>
        <time>2025-01-31T13:42:35Z</time>
      </trkpt>
      <trkpt lat="48.19065" lon="6.84121">
        <ele>512.8</ele>
        <time>2025-01-31T13:42:40Z</time>
      </trkpt>
      <trkpt lat="48.19058" lon="6.8411">
        <ele>513.7</ele>
        <time>2025-01-31T13:42:46Z</time>
      </trkpt>
      <trkpt lat="48.19051" lon="6.841">
        <ele>514.4</ele>
        <time>2025-01-31T13:42:53Z</time>
      </trkpt>
      <trkpt lat="48.19044" lon="6.84091">
        <ele>515.2</ele>
        <time>2025-01-31T13:43:01Z</time>
      </trkpt>
      <trkpt lat="48.19036" lon="6.84085">
        <ele>515.9</ele>
        <time>2025-01-31T13:43:10Z</time>
      </trkpt>
      <trkpt lat="48.19026" lon="6.84079">
        <ele>516.9</ele>
        <time>2025-01-31T13:43:19Z</time>
      </trkpt>
      <trkpt lat="48.19017" lon="6.84071">
        <ele>517.9</ele>
        <time>2025-01-31T13:43:26Z</time>
      </trkpt>
      <trkpt lat="48.1901" lon="6.84062">
        <ele>519</ele>
        <time>2025-01-31T13:43:32Z</time>
      </trkpt>
      <trkpt lat="48.19004" lon="6.84052">
        <ele>520</ele>
        <time>2025-01-31T13:43:38Z</time>
      </trkpt>
      <trkpt lat="48.18997" lon="6.84041">
        <ele>521.2</ele>
        <time>2025-01-31T13:43:44Z</time>
      </trkpt>
      <trkpt lat="48.18992" lon="6.84029">
        <ele>522.5</ele>
        <time>2025-01-31T13:43:49Z</time>
      </trkpt>
      <trkpt lat="48.18987" lon="6.84018">
        <ele>523.8</ele>
        <time>2025-01-31T13:43:56Z</time>
      </trkpt>
      <trkpt lat="48.18982" lon="6.84005">
        <ele>525.1</ele>
        <time>2025-01-31T13:44:02Z</time>
      </trkpt>
      <trkpt lat="48.18975" lon="6.83994">
        <ele>526.1</ele>
        <time>2025-01-31T13:44:09Z</time>
      </trkpt>
      <trkpt lat="48.18972" lon="6.83981">
        <ele>526.9</ele>
        <time>2025-01-31T13:44:13Z</time>
      </trkpt>
      <trkpt lat="48.18967" lon="6.83969">
        <ele>527.6</ele>
        <time>2025-01-31T13:44:20Z</time>
      </trkpt>
      <trkpt lat="48.18962" lon="6.83957">
        <ele>528.2</ele>
        <time>2025-01-31T13:44:28Z</time>
      </trkpt>
      <trkpt lat="48.18957" lon="6.83945">
        <ele>528.8</ele>
        <time>2025-01-31T13:44:35Z</time>
      </trkpt>
      <trkpt lat="48.18952" lon="6.83934">
        <ele>529.3</ele>
        <time>2025-01-31T13:44:42Z</time>
      </trkpt>
      <trkpt lat="48.18945" lon="6.83925">
        <ele>529.9</ele>
        <time>2025-01-31T13:44:50Z</time>
      </trkpt>
      <trkpt lat="48.18936" lon="6.83921">
        <ele>530.7</ele>
        <time>2025-01-31T13:44:58Z</time>
      </trkpt>
      <trkpt lat="48.18927" lon="6.83925">
        <ele>531.5</ele>
        <time>2025-01-31T13:45:06Z</time>
      </trkpt>
      <trkpt lat="48.18918" lon="6.83927">
        <ele>532.4</ele>
        <time>2025-01-31T13:45:14Z</time>
      </trkpt>
      <trkpt lat="48.18908" lon="6.83927">
        <ele>533.3</ele>
        <time>2025-01-31T13:45:21Z</time>
      </trkpt>
      <trkpt lat="48.18899" lon="6.83927">
        <ele>534.2</ele>
        <time>2025-01-31T13:45:28Z</time>
      </trkpt>
      <trkpt lat="48.18889" lon="6.83928">
        <ele>535.1</ele>
        <time>2025-01-31T13:45:36Z</time>
      </trkpt>
      <trkpt lat="48.18879" lon="6.83928">
        <ele>536</ele>
        <time>2025-01-31T13:45:43Z</time>
      </trkpt>
      <trkpt lat="48.1887" lon="6.83931">
        <ele>536.8</ele>
        <time>2025-01-31T13:45:51Z</time>
      </trkpt>
      <trkpt lat="48.18861" lon="6.83932">
        <ele>537.7</ele>
        <time>2025-01-31T13:45:58Z</time>
      </trkpt>
      <trkpt lat="48.18852" lon="6.83935">
        <ele>538.6</ele>
        <time>2025-01-31T13:46:05Z</time>
      </trkpt>
      <trkpt lat="48.18842" lon="6.83933">
        <ele>539.6</ele>
        <time>2025-01-31T13:46:12Z</time>
      </trkpt>
      <trkpt lat="48.18833" lon="6.83938">
        <ele>540.7</ele>
        <time>2025-01-31T13:46:21Z</time>
      </trkpt>
      <trkpt lat="48.18825" lon="6.83943">
        <ele>541.7</ele>
        <time>2025-01-31T13:46:31Z</time>
      </trkpt>
      <trkpt lat="48.18816" lon="6.83943">
        <ele>543</ele>
        <time>2025-01-31T13:46:38Z</time>
      </trkpt>
      <trkpt lat="48.18806" lon="6.83937">
        <ele>544.6</ele>
        <time>2025-01-31T13:46:45Z</time>
      </trkpt>
      <trkpt lat="48.18797" lon="6.83929">
        <ele>546.2</ele>
        <time>2025-01-31T13:46:51Z</time>
      </trkpt>
      <trkpt lat="48.1879" lon="6.83918">
        <ele>547.8</ele>
        <time>2025-01-31T13:46:58Z</time>
      </trkpt>
      <trkpt lat="48.18785" lon="6.83907">
        <ele>549.2</ele>
        <time>2025-01-31T13:47:03Z</time>
      </trkpt>
      <trkpt lat="48.18777" lon="6.83896">
        <ele>550.4</ele>
        <time>2025-01-31T13:47:11Z</time>
      </trkpt>
      <trkpt lat="48.18771" lon="6.83886">
        <ele>551.2</ele>
        <time>2025-01-31T13:47:16Z</time>
      </trkpt>
      <trkpt lat="48.18763" lon="6.83875">
        <ele>551.9</ele>
        <time>2025-01-31T13:47:25Z</time>
      </trkpt>
      <trkpt lat="48.18755" lon="6.83867">
        <ele>552.6</ele>
        <time>2025-01-31T13:47:33Z</time>
      </trkpt>
      <trkpt lat="48.18746" lon="6.83863">
        <ele>553</ele>
        <time>2025-01-31T13:47:42Z</time>
      </trkpt>
      <trkpt lat="48.18736" lon="6.83861">
        <ele>553.2</ele>
        <time>2025-01-31T13:47:49Z</time>
      </trkpt>
      <trkpt lat="48.18727" lon="6.83857">
        <ele>553.4</ele>
        <time>2025-01-31T13:47:55Z</time>
      </trkpt>
      <trkpt lat="48.18718" lon="6.83856">
        <ele>553.4</ele>
        <time>2025-01-31T13:48:01Z</time>
      </trkpt>
      <trkpt lat="48.18707" lon="6.83853">
        <ele>553.5</ele>
        <time>2025-01-31T13:48:08Z</time>
      </trkpt>
      <trkpt lat="48.18697" lon="6.83849">
        <ele>553.5</ele>
        <time>2025-01-31T13:48:16Z</time>
      </trkpt>
      <trkpt lat="48.18688" lon="6.83847">
        <ele>553.5</ele>
        <time>2025-01-31T13:48:22Z</time>
      </trkpt>
      <trkpt lat="48.18678" lon="6.83842">
        <ele>553.5</ele>
        <time>2025-01-31T13:48:29Z</time>
      </trkpt>
      <trkpt lat="48.18669" lon="6.83841">
        <ele>553.6</ele>
        <time>2025-01-31T13:48:36Z</time>
      </trkpt>
      <trkpt lat="48.1866" lon="6.83837">
        <ele>553.7</ele>
        <time>2025-01-31T13:48:43Z</time>
      </trkpt>
      <trkpt lat="48.18651" lon="6.83834">
        <ele>553.8</ele>
        <time>2025-01-31T13:48:49Z</time>
      </trkpt>
      <trkpt lat="48.18642" lon="6.83832">
        <ele>554.1</ele>
        <time>2025-01-31T13:48:56Z</time>
      </trkpt>
      <trkpt lat="48.18632" lon="6.8383">
        <ele>554.6</ele>
        <time>2025-01-31T13:49:03Z</time>
      </trkpt>
      <trkpt lat="48.18622" lon="6.83832">
        <ele>555.4</ele>
        <time>2025-01-31T13:49:11Z</time>
      </trkpt>
      <trkpt lat="48.18613" lon="6.8383">
        <ele>556.3</ele>
        <time>2025-01-31T13:49:21Z</time>
      </trkpt>
      <trkpt lat="48.18604" lon="6.83825">
        <ele>557.1</ele>
        <time>2025-01-31T13:49:29Z</time>
      </trkpt>
      <trkpt lat="48.18596" lon="6.83818">
        <ele>558.1</ele>
        <time>2025-01-31T13:49:34Z</time>
      </trkpt>
      <trkpt lat="48.18588" lon="6.83813">
        <ele>559.1</ele>
        <time>2025-01-31T13:49:40Z</time>
      </trkpt>
      <trkpt lat="48.18579" lon="6.83808">
        <ele>560.1</ele>
        <time>2025-01-31T13:49:47Z</time>
      </trkpt>
      <trkpt lat="48.18571" lon="6.83801">
        <ele>561.1</ele>
        <time>2025-01-31T13:49:53Z</time>
      </trkpt>
      <trkpt lat="48.18562" lon="6.83796">
        <ele>561.9</ele>
        <time>2025-01-31T13:49:59Z</time>
      </trkpt>
      <trkpt lat="48.18554" lon="6.83788">
        <ele>562.3</ele>
        <time>2025-01-31T13:50:06Z</time>
      </trkpt>
      <trkpt lat="48.18547" lon="6.83778">
        <ele>562.5</ele>
        <time>2025-01-31T13:50:12Z</time>
      </trkpt>
      <trkpt lat="48.1854" lon="6.83769">
        <ele>562.6</ele>
        <time>2025-01-31T13:50:18Z</time>
      </trkpt>
      <trkpt lat="48.18534" lon="6.83758">
        <ele>562.6</ele>
        <time>2025-01-31T13:50:23Z</time>
      </trkpt>
      <trkpt lat="48.1853" lon="6.83746">
        <ele>562.6</ele>
        <time>2025-01-31T13:50:31Z</time>
      </trkpt>
      <trkpt lat="48.18526" lon="6.83732">
        <ele>562.6</ele>
        <time>2025-01-31T13:50:38Z</time>
      </trkpt>
      <trkpt lat="48.18523" lon="6.83718">
        <ele>562.8</ele>
        <time>2025-01-31T13:50:45Z</time>
      </trkpt>
      <trkpt lat="48.1852" lon="6.83703">
        <ele>563.1</ele>
        <time>2025-01-31T13:50:53Z</time>
      </trkpt>
      <trkpt lat="48.18518" lon="6.83689">
        <ele>563.4</ele>
        <time>2025-01-31T13:51:00Z</time>
      </trkpt>
      <trkpt lat="48.18519" lon="6.83674">
        <ele>563.8</ele>
        <time>2025-01-31T13:51:07Z</time>
      </trkpt>
      <trkpt lat="48.18526" lon="6.83663">
        <ele>564.4</ele>
        <time>2025-01-31T13:51:16Z</time>
      </trkpt>
      <trkpt lat="48.18535" lon="6.83657">
        <ele>565.1</ele>
        <time>2025-01-31T13:51:25Z</time>
      </trkpt>
      <trkpt lat="48.18544" lon="6.83657">
        <ele>565.9</ele>
        <time>2025-01-31T13:51:31Z</time>
      </trkpt>
      <trkpt lat="48.18553" lon="6.83653">
        <ele>566.7</ele>
        <time>2025-01-31T13:51:38Z</time>
      </trkpt>
      <trkpt lat="48.18559" lon="6.83642">
        <ele>567.3</ele>
        <time>2025-01-31T13:51:46Z</time>
      </trkpt>
      <trkpt lat="48.18568" lon="6.8364">
        <ele>567.8</ele>
        <time>2025-01-31T13:51:53Z</time>
      </trkpt>
      <trkpt lat="48.18578" lon="6.83636">
        <ele>568</ele>
        <time>2025-01-31T13:51:59Z</time>
      </trkpt>
      <trkpt lat="48.18587" lon="6.8363">
        <ele>568.1</ele>
        <time>2025-01-31T13:52:05Z</time>
      </trkpt>
      <trkpt lat="48.18595" lon="6.83624">
        <ele>568.3</ele>
        <time>2025-01-31T13:52:12Z</time>
      </trkpt>
      <trkpt lat="48.18604" lon="6.83617">
        <ele>568.6</ele>
        <time>2025-01-31T13:52:21Z</time>
      </trkpt>
      <trkpt lat="48.18612" lon="6.83608">
        <ele>569</ele>
        <time>2025-01-31T13:52:30Z</time>
      </trkpt>
      <trkpt lat="48.18618" lon="6.83598">
        <ele>569.2</ele>
        <time>2025-01-31T13:52:38Z</time>
      </trkpt>
      <trkpt lat="48.1862" lon="6.8359">
        <ele>569.1</ele>
        <time>2025-01-31T13:52:49Z</time>
      </trkpt>
      <trkpt lat="48.18621" lon="6.8359">
        <ele>569.1</ele>
        <time>2025-01-31T13:52:50Z</time>
      </trkpt>
      <trkpt lat="48.18621" lon="6.8359">
        <ele>569.1</ele>
        <time>2025-01-31T13:52:51Z</time>
      </trkpt>
      <trkpt lat="48.18621" lon="6.83589">
        <ele>569.1</ele>
        <time>2025-01-31T13:52:52Z</time>
      </trkpt>
      <trkpt lat="48.18622" lon="6.83589">
        <ele>569.1</ele>
        <time>2025-01-31T13:52:53Z</time>
      </trkpt>
      <trkpt lat="48.18629" lon="6.83586">
        <ele>568.7</ele>
        <time>2025-01-31T13:53:05Z</time>
      </trkpt>
      <trkpt lat="48.18629" lon="6.83586">
        <ele>568.6</ele>
        <time>2025-01-31T13:53:06Z</time>
      </trkpt>
      <trkpt lat="48.18628" lon="6.83584">
        <ele>568.5</ele>
        <time>2025-01-31T13:53:09Z</time>
      </trkpt>
      <trkpt lat="48.18628" lon="6.83584">
        <ele>568.5</ele>
        <time>2025-01-31T13:53:10Z</time>
      </trkpt>
      <trkpt lat="48.18628" lon="6.83584">
        <ele>568.5</ele>
        <time>2025-01-31T13:53:11Z</time>
      </trkpt>
      <trkpt lat="48.18628" lon="6.83584">
        <ele>568.5</ele>
        <time>2025-01-31T13:53:12Z</time>
      </trkpt>
      <trkpt lat="48.18628" lon="6.83584">
        <ele>568.5</ele>
        <time>2025-01-31T13:53:13Z</time>
      </trkpt>
      <trkpt lat="48.18628" lon="6.83584">
        <ele>568.5</ele>
        <time>2025-01-31T13:53:14Z</time>
      </trkpt>
      <trkpt lat="48.18631" lon="6.83581">
        <ele>568.2</ele>
        <time>2025-01-31T13:53:32Z</time>
      </trkpt>
      <trkpt lat="48.18632" lon="6.8358">
        <ele>568.1</ele>
        <time>2025-01-31T13:53:33Z</time>
      </trkpt>
      <trkpt lat="48.18636" lon="6.83566">
        <ele>567.2</ele>
        <time>2025-01-31T13:53:43Z</time>
      </trkpt>
      <trkpt lat="48.18644" lon="6.83559">
        <ele>566.7</ele>
        <time>2025-01-31T13:53:51Z</time>
      </trkpt>
      <trkpt lat="48.18651" lon="6.83549">
        <ele>566.7</ele>
        <time>2025-01-31T13:53:58Z</time>
      </trkpt>
      <trkpt lat="48.18658" lon="6.83538">
        <ele>567.4</ele>
        <time>2025-01-31T13:54:07Z</time>
      </trkpt>
      <trkpt lat="48.1866" lon="6.83525">
        <ele>568.3</ele>
        <time>2025-01-31T13:54:15Z</time>
      </trkpt>
      <trkpt lat="48.18661" lon="6.83509">
        <ele>569.5</ele>
        <time>2025-01-31T13:54:22Z</time>
      </trkpt>
      <trkpt lat="48.18669" lon="6.83502">
        <ele>570.6</ele>
        <time>2025-01-31T13:54:30Z</time>
      </trkpt>
      <trkpt lat="48.18678" lon="6.83499">
        <ele>571.8</ele>
        <time>2025-01-31T13:54:38Z</time>
      </trkpt>
      <trkpt lat="48.18687" lon="6.83505">
        <ele>572.7</ele>
        <time>2025-01-31T13:54:45Z</time>
      </trkpt>
      <trkpt lat="48.18696" lon="6.83509">
        <ele>573.3</ele>
        <time>2025-01-31T13:54:51Z</time>
      </trkpt>
      <trkpt lat="48.18705" lon="6.83508">
        <ele>573.5</ele>
        <time>2025-01-31T13:55:00Z</time>
      </trkpt>
      <trkpt lat="48.18715" lon="6.83509">
        <ele>573.2</ele>
        <time>2025-01-31T13:55:09Z</time>
      </trkpt>
      <trkpt lat="48.18725" lon="6.83511">
        <ele>572.7</ele>
        <time>2025-01-31T13:55:17Z</time>
      </trkpt>
      <trkpt lat="48.18735" lon="6.83507">
        <ele>572.3</ele>
        <time>2025-01-31T13:55:26Z</time>
      </trkpt>
      <trkpt lat="48.18744" lon="6.83505">
        <ele>572</ele>
        <time>2025-01-31T13:55:36Z</time>
      </trkpt>
      <trkpt lat="48.18754" lon="6.83504">
        <ele>571.7</ele>
        <time>2025-01-31T13:55:45Z</time>
      </trkpt>
      <trkpt lat="48.18763" lon="6.83511">
        <ele>571.3</ele>
        <time>2025-01-31T13:55:53Z</time>
      </trkpt>
      <trkpt lat="48.18772" lon="6.83517">
        <ele>571</ele>
        <time>2025-01-31T13:56:03Z</time>
      </trkpt>
      <trkpt lat="48.18782" lon="6.83517">
        <ele>570.7</ele>
        <time>2025-01-31T13:56:12Z</time>
      </trkpt>
      <trkpt lat="48.18791" lon="6.83516">
        <ele>570.2</ele>
        <time>2025-01-31T13:56:19Z</time>
      </trkpt>
      <trkpt lat="48.18803" lon="6.83512">
        <ele>569.4</ele>
        <time>2025-01-31T13:56:26Z</time>
      </trkpt>
      <trkpt lat="48.18812" lon="6.83513">
        <ele>568.7</ele>
        <time>2025-01-31T13:56:30Z</time>
      </trkpt>
      <trkpt lat="48.18821" lon="6.83513">
        <ele>567.9</ele>
        <time>2025-01-31T13:56:37Z</time>
      </trkpt>
      <trkpt lat="48.18831" lon="6.83515">
        <ele>567.4</ele>
        <time>2025-01-31T13:56:45Z</time>
      </trkpt>
      <trkpt lat="48.1884" lon="6.83519">
        <ele>567.1</ele>
        <time>2025-01-31T13:56:51Z</time>
      </trkpt>
      <trkpt lat="48.1885" lon="6.83519">
        <ele>567.2</ele>
        <time>2025-01-31T13:56:59Z</time>
      </trkpt>
      <trkpt lat="48.18859" lon="6.83514">
        <ele>567.6</ele>
        <time>2025-01-31T13:57:06Z</time>
      </trkpt>
      <trkpt lat="48.18867" lon="6.83505">
        <ele>568</ele>
        <time>2025-01-31T13:57:11Z</time>
      </trkpt>
      <trkpt lat="48.18875" lon="6.83494">
        <ele>568.4</ele>
        <time>2025-01-31T13:57:16Z</time>
      </trkpt>
      <trkpt lat="48.18883" lon="6.83485">
        <ele>568.8</ele>
        <time>2025-01-31T13:57:21Z</time>
      </trkpt>
      <trkpt lat="48.1889" lon="6.83477">
        <ele>569.2</ele>
        <time>2025-01-31T13:57:27Z</time>
      </trkpt>
      <trkpt lat="48.18899" lon="6.83471">
        <ele>569.5</ele>
        <time>2025-01-31T13:57:33Z</time>
      </trkpt>
      <trkpt lat="48.18907" lon="6.83465">
        <ele>569.8</ele>
        <time>2025-01-31T13:57:44Z</time>
      </trkpt>
      <trkpt lat="48.18914" lon="6.83453">
        <ele>570</ele>
        <time>2025-01-31T13:57:52Z</time>
      </trkpt>
      <trkpt lat="48.18919" lon="6.8344">
        <ele>570</ele>
        <time>2025-01-31T13:57:59Z</time>
      </trkpt>
      <trkpt lat="48.18924" lon="6.83427">
        <ele>570</ele>
        <time>2025-01-31T13:58:07Z</time>
      </trkpt>
      <trkpt lat="48.18933" lon="6.83422">
        <ele>569.9</ele>
        <time>2025-01-31T13:58:13Z</time>
      </trkpt>
      <trkpt lat="48.18942" lon="6.83414">
        <ele>569.8</ele>
        <time>2025-01-31T13:58:20Z</time>
      </trkpt>
      <trkpt lat="48.18952" lon="6.83408">
        <ele>569.6</ele>
        <time>2025-01-31T13:58:28Z</time>
      </trkpt>
      <trkpt lat="48.18959" lon="6.83398">
        <ele>569.4</ele>
        <time>2025-01-31T13:58:35Z</time>
      </trkpt>
      <trkpt lat="48.18967" lon="6.83389">
        <ele>569</ele>
        <time>2025-01-31T13:58:42Z</time>
      </trkpt>
      <trkpt lat="48.18974" lon="6.83381">
        <ele>568.6</ele>
        <time>2025-01-31T13:58:49Z</time>
      </trkpt>
      <trkpt lat="48.18981" lon="6.8337">
        <ele>568</ele>
        <time>2025-01-31T13:58:56Z</time>
      </trkpt>
      <trkpt lat="48.18988" lon="6.8336">
        <ele>567.1</ele>
        <time>2025-01-31T13:59:04Z</time>
      </trkpt>
      <trkpt lat="48.18996" lon="6.83352">
        <ele>566.2</ele>
        <time>2025-01-31T13:59:11Z</time>
      </trkpt>
      <trkpt lat="48.19004" lon="6.83344">
        <ele>565.1</ele>
        <time>2025-01-31T13:59:17Z</time>
      </trkpt>
      <trkpt lat="48.1901" lon="6.83333">
        <ele>564</ele>
        <time>2025-01-31T13:59:24Z</time>
      </trkpt>
      <trkpt lat="48.19017" lon="6.83325">
        <ele>563.1</ele>
        <time>2025-01-31T13:59:31Z</time>
      </trkpt>
      <trkpt lat="48.19023" lon="6.83313">
        <ele>562.2</ele>
        <time>2025-01-31T13:59:38Z</time>
      </trkpt>
      <trkpt lat="48.19027" lon="6.833">
        <ele>561.6</ele>
        <time>2025-01-31T13:59:44Z</time>
      </trkpt>
      <trkpt lat="48.1903" lon="6.83286">
        <ele>561</ele>
        <time>2025-01-31T13:59:49Z</time>
      </trkpt>
      <trkpt lat="48.19034" lon="6.83273">
        <ele>560.4</ele>
        <time>2025-01-31T13:59:56Z</time>
      </trkpt>
      <trkpt lat="48.1904" lon="6.8326">
        <ele>559.7</ele>
        <time>2025-01-31T14:00:04Z</time>
      </trkpt>
      <trkpt lat="48.19045" lon="6.83249">
        <ele>558.9</ele>
        <time>2025-01-31T14:00:12Z</time>
      </trkpt>
      <trkpt lat="48.1905" lon="6.83236">
        <ele>557.8</ele>
        <time>2025-01-31T14:00:19Z</time>
      </trkpt>
      <trkpt lat="48.19057" lon="6.83225">
        <ele>556.7</ele>
        <time>2025-01-31T14:00:28Z</time>
      </trkpt>
      <trkpt lat="48.19063" lon="6.83214">
        <ele>555.5</ele>
        <time>2025-01-31T14:00:37Z</time>
      </trkpt>
      <trkpt lat="48.19071" lon="6.83208">
        <ele>554.3</ele>
        <time>2025-01-31T14:00:44Z</time>
      </trkpt>
      <trkpt lat="48.19079" lon="6.832">
        <ele>552.9</ele>
        <time>2025-01-31T14:00:52Z</time>
      </trkpt>
      <trkpt lat="48.19087" lon="6.83192">
        <ele>551.5</ele>
        <time>2025-01-31T14:01:02Z</time>
      </trkpt>
      <trkpt lat="48.19084" lon="6.83178">
        <ele>550.4</ele>
        <time>2025-01-31T14:01:13Z</time>
      </trkpt>
      <trkpt lat="48.19085" lon="6.83163">
        <ele>549.8</ele>
        <time>2025-01-31T14:01:20Z</time>
      </trkpt>
      <trkpt lat="48.19091" lon="6.83151">
        <ele>549.8</ele>
        <time>2025-01-31T14:01:31Z</time>
      </trkpt>
      <trkpt lat="48.191" lon="6.8315">
        <ele>550.5</ele>
        <time>2025-01-31T14:01:37Z</time>
      </trkpt>
      <trkpt lat="48.19106" lon="6.83139">
        <ele>551.7</ele>
        <time>2025-01-31T14:01:45Z</time>
      </trkpt>
      <trkpt lat="48.19114" lon="6.8313">
        <ele>553.1</ele>
        <time>2025-01-31T14:01:58Z</time>
      </trkpt>
      <trkpt lat="48.19121" lon="6.83121">
        <ele>554.7</ele>
        <time>2025-01-31T14:02:16Z</time>
      </trkpt>
      <trkpt lat="48.19129" lon="6.83113">
        <ele>555.9</ele>
        <time>2025-01-31T14:02:24Z</time>
      </trkpt>
      <trkpt lat="48.19137" lon="6.83105">
        <ele>556.9</ele>
        <time>2025-01-31T14:02:32Z</time>
      </trkpt>
      <trkpt lat="48.19145" lon="6.83096">
        <ele>557.6</ele>
        <time>2025-01-31T14:02:43Z</time>
      </trkpt>
      <trkpt lat="48.1915" lon="6.83085">
        <ele>559.6</ele>
        <time>2025-01-31T14:02:51Z</time>
      </trkpt>
      <trkpt lat="48.19158" lon="6.83077">
        <ele>561.2</ele>
        <time>2025-01-31T14:03:00Z</time>
      </trkpt>
      <trkpt lat="48.19165" lon="6.83067">
        <ele>562.6</ele>
        <time>2025-01-31T14:03:09Z</time>
      </trkpt>
      <trkpt lat="48.19172" lon="6.83057">
        <ele>564.3</ele>
        <time>2025-01-31T14:03:17Z</time>
      </trkpt>
      <trkpt lat="48.19171" lon="6.83043">
        <ele>566.2</ele>
        <time>2025-01-31T14:03:32Z</time>
      </trkpt>
      <trkpt lat="48.19168" lon="6.83029">
        <ele>568.4</ele>
        <time>2025-01-31T14:03:56Z</time>
      </trkpt>
      <trkpt lat="48.1916" lon="6.83019">
        <ele>570.8</ele>
        <time>2025-01-31T14:04:04Z</time>
      </trkpt>
      <trkpt lat="48.19159" lon="6.83005">
        <ele>573.3</ele>
        <time>2025-01-31T14:04:14Z</time>
      </trkpt>
      <trkpt lat="48.19156" lon="6.82991">
        <ele>575.3</ele>
        <time>2025-01-31T14:04:25Z</time>
      </trkpt>
      <trkpt lat="48.1915" lon="6.82981">
        <ele>577</ele>
        <time>2025-01-31T14:04:30Z</time>
      </trkpt>
      <trkpt lat="48.19148" lon="6.82967">
        <ele>578.3</ele>
        <time>2025-01-31T14:04:39Z</time>
      </trkpt>
      <trkpt lat="48.19142" lon="6.82957">
        <ele>579.3</ele>
        <time>2025-01-31T14:04:50Z</time>
      </trkpt>
      <trkpt lat="48.19137" lon="6.82945">
        <ele>580.2</ele>
        <time>2025-01-31T14:05:00Z</time>
      </trkpt>
      <trkpt lat="48.19132" lon="6.82933">
        <ele>581.3</ele>
        <time>2025-01-31T14:05:06Z</time>
      </trkpt>
      <trkpt lat="48.19124" lon="6.82923">
        <ele>582.6</ele>
        <time>2025-01-31T14:05:14Z</time>
      </trkpt>
      <trkpt lat="48.19116" lon="6.82915">
        <ele>584</ele>
        <time>2025-01-31T14:05:21Z</time>
      </trkpt>
      <trkpt lat="48.19115" lon="6.82913">
        <ele>584.4</ele>
        <time>2025-01-31T14:05:26Z</time>
      </trkpt>
      <trkpt lat="48.19113" lon="6.82912">
        <ele>584.6</ele>
        <time>2025-01-31T14:05:27Z</time>
      </trkpt>
      <trkpt lat="48.19113" lon="6.82912">
        <ele>584.6</ele>
        <time>2025-01-31T14:05:28Z</time>
      </trkpt>
      <trkpt lat="48.19113" lon="6.82911">
        <ele>584.7</ele>
        <time>2025-01-31T14:05:29Z</time>
      </trkpt>
      <trkpt lat="48.19112" lon="6.82911">
        <ele>584.8</ele>
        <time>2025-01-31T14:05:30Z</time>
      </trkpt>
      <trkpt lat="48.19105" lon="6.82901">
        <ele>586.5</ele>
        <time>2025-01-31T14:05:44Z</time>
      </trkpt>
      <trkpt lat="48.19097" lon="6.82895">
        <ele>588.1</ele>
        <time>2025-01-31T14:06:09Z</time>
      </trkpt>
      <trkpt lat="48.19097" lon="6.82895">
        <ele>588.1</ele>
        <time>2025-01-31T14:06:10Z</time>
      </trkpt>
      <trkpt lat="48.19104" lon="6.82886">
        <ele>589.8</ele>
        <time>2025-01-31T14:06:24Z</time>
      </trkpt>
      <trkpt lat="48.19097" lon="6.82895">
        <ele>591.5</ele>
        <time>2025-01-31T14:06:55Z</time>
      </trkpt>
      <trkpt lat="48.19091" lon="6.82899">
        <ele>592.7</ele>
        <time>2025-01-31T14:07:00Z</time>
      </trkpt>
      <trkpt lat="48.19089" lon="6.829">
        <ele>593</ele>
        <time>2025-01-31T14:07:01Z</time>
      </trkpt>
      <trkpt lat="48.1909" lon="6.82892">
        <ele>593.9</ele>
        <time>2025-01-31T14:08:20Z</time>
      </trkpt>
      <trkpt lat="48.1909" lon="6.82893">
        <ele>593.9</ele>
        <time>2025-01-31T14:08:21Z</time>
      </trkpt>
      <trkpt lat="48.19083" lon="6.82892">
        <ele>595.2</ele>
        <time>2025-01-31T14:08:27Z</time>
      </trkpt>
      <trkpt lat="48.19083" lon="6.82892">
        <ele>595.3</ele>
        <time>2025-01-31T14:08:28Z</time>
      </trkpt>
      <trkpt lat="48.19084" lon="6.82892">
        <ele>595.3</ele>
        <time>2025-01-31T14:08:29Z</time>
      </trkpt>
      <trkpt lat="48.19084" lon="6.82892">
        <ele>595.4</ele>
        <time>2025-01-31T14:08:30Z</time>
      </trkpt>
      <trkpt lat="48.19083" lon="6.82891">
        <ele>595.6</ele>
        <time>2025-01-31T14:08:31Z</time>
      </trkpt>
      <trkpt lat="48.19076" lon="6.82883">
        <ele>597.5</ele>
        <time>2025-01-31T14:08:51Z</time>
      </trkpt>
      <trkpt lat="48.19067" lon="6.82875">
        <ele>599.7</ele>
        <time>2025-01-31T14:09:03Z</time>
      </trkpt>
      <trkpt lat="48.1906" lon="6.82865">
        <ele>601.8</ele>
        <time>2025-01-31T14:09:19Z</time>
      </trkpt>
      <trkpt lat="48.19053" lon="6.82856">
        <ele>603.7</ele>
        <time>2025-01-31T14:09:30Z</time>
      </trkpt>
      <trkpt lat="48.19046" lon="6.82846">
        <ele>605.7</ele>
        <time>2025-01-31T14:09:37Z</time>
      </trkpt>
      <trkpt lat="48.19039" lon="6.82837">
        <ele>607.8</ele>
        <time>2025-01-31T14:09:49Z</time>
      </trkpt>
      <trkpt lat="48.19032" lon="6.82828">
        <ele>609.8</ele>
        <time>2025-01-31T14:10:04Z</time>
      </trkpt>
      <trkpt lat="48.19023" lon="6.8282">
        <ele>611.8</ele>
        <time>2025-01-31T14:10:11Z</time>
      </trkpt>
      <trkpt lat="48.19015" lon="6.82815">
        <ele>613.8</ele>
        <time>2025-01-31T14:10:21Z</time>
      </trkpt>
      <trkpt lat="48.19006" lon="6.82808">
        <ele>615.9</ele>
        <time>2025-01-31T14:10:30Z</time>
      </trkpt>
      <trkpt lat="48.18998" lon="6.828">
        <ele>618</ele>
        <time>2025-01-31T14:10:39Z</time>
      </trkpt>
      <trkpt lat="48.18992" lon="6.82789">
        <ele>619.9</ele>
        <time>2025-01-31T14:10:48Z</time>
      </trkpt>
      <trkpt lat="48.18986" lon="6.82777">
        <ele>621.8</ele>
        <time>2025-01-31T14:10:56Z</time>
      </trkpt>
      <trkpt lat="48.18983" lon="6.82764">
        <ele>623.8</ele>
        <time>2025-01-31T14:11:15Z</time>
      </trkpt>
      <trkpt lat="48.18981" lon="6.8275">
        <ele>625.8</ele>
        <time>2025-01-31T14:11:24Z</time>
      </trkpt>
      <trkpt lat="48.18974" lon="6.82738">
        <ele>627.9</ele>
        <time>2025-01-31T14:11:32Z</time>
      </trkpt>
      <trkpt lat="48.18968" lon="6.82726">
        <ele>629.6</ele>
        <time>2025-01-31T14:11:40Z</time>
      </trkpt>
      <trkpt lat="48.18978" lon="6.82723">
        <ele>630.4</ele>
        <time>2025-01-31T14:11:59Z</time>
      </trkpt>
      <trkpt lat="48.18985" lon="6.82733">
        <ele>630.3</ele>
        <time>2025-01-31T14:12:07Z</time>
      </trkpt>
      <trkpt lat="48.18994" lon="6.8274">
        <ele>630.4</ele>
        <time>2025-01-31T14:12:15Z</time>
      </trkpt>
      <trkpt lat="48.19002" lon="6.82748">
        <ele>630.6</ele>
        <time>2025-01-31T14:12:22Z</time>
      </trkpt>
      <trkpt lat="48.19011" lon="6.82755">
        <ele>630.8</ele>
        <time>2025-01-31T14:12:28Z</time>
      </trkpt>
      <trkpt lat="48.19019" lon="6.82765">
        <ele>630.9</ele>
        <time>2025-01-31T14:12:37Z</time>
      </trkpt>
      <trkpt lat="48.19028" lon="6.8277">
        <ele>631</ele>
        <time>2025-01-31T14:12:47Z</time>
      </trkpt>
      <trkpt lat="48.19037" lon="6.82776">
        <ele>631</ele>
        <time>2025-01-31T14:12:55Z</time>
      </trkpt>
      <trkpt lat="48.19047" lon="6.82781">
        <ele>631</ele>
        <time>2025-01-31T14:13:02Z</time>
      </trkpt>
      <trkpt lat="48.19047" lon="6.82781">
        <ele>631</ele>
        <time>2025-01-31T14:13:04Z</time>
      </trkpt>
      <trkpt lat="48.19047" lon="6.82781">
        <ele>631</ele>
        <time>2025-01-31T14:13:05Z</time>
      </trkpt>
      <trkpt lat="48.19047" lon="6.82781">
        <ele>631</ele>
        <time>2025-01-31T14:13:06Z</time>
      </trkpt>
      <trkpt lat="48.19047" lon="6.8278">
        <ele>631</ele>
        <time>2025-01-31T14:13:14Z</time>
      </trkpt>
      <trkpt lat="48.19047" lon="6.82779">
        <ele>631</ele>
        <time>2025-01-31T14:13:15Z</time>
      </trkpt>
      <trkpt lat="48.19046" lon="6.82779">
        <ele>631</ele>
        <time>2025-01-31T14:13:16Z</time>
      </trkpt>
      <trkpt lat="48.19044" lon="6.8278">
        <ele>631</ele>
        <time>2025-01-31T14:13:22Z</time>
      </trkpt>
      <trkpt lat="48.19044" lon="6.82781">
        <ele>631</ele>
        <time>2025-01-31T14:13:23Z</time>
      </trkpt>
      <trkpt lat="48.19044" lon="6.82781">
        <ele>631</ele>
        <time>2025-01-31T14:13:24Z</time>
      </trkpt>
      <trkpt lat="48.19044" lon="6.82781">
        <ele>631</ele>
        <time>2025-01-31T14:13:34Z</time>
      </trkpt>
      <trkpt lat="48.19043" lon="6.82781">
        <ele>631</ele>
        <time>2025-01-31T14:13:35Z</time>
      </trkpt>
      <trkpt lat="48.19034" lon="6.82775">
        <ele>631</ele>
        <time>2025-01-31T14:13:42Z</time>
      </trkpt>
      <trkpt lat="48.19024" lon="6.82769">
        <ele>631</ele>
        <time>2025-01-31T14:13:48Z</time>
      </trkpt>
      <trkpt lat="48.19015" lon="6.82763">
        <ele>630.9</ele>
        <time>2025-01-31T14:13:55Z</time>
      </trkpt>
      <trkpt lat="48.19008" lon="6.82755">
        <ele>630.7</ele>
        <time>2025-01-31T14:14:01Z</time>
      </trkpt>
      <trkpt lat="48.19" lon="6.82746">
        <ele>630.6</ele>
        <time>2025-01-31T14:14:07Z</time>
      </trkpt>
      <trkpt lat="48.18992" lon="6.82736">
        <ele>630.4</ele>
        <time>2025-01-31T14:14:13Z</time>
      </trkpt>
      <trkpt lat="48.18985" lon="6.82727">
        <ele>630.3</ele>
        <time>2025-01-31T14:14:18Z</time>
      </trkpt>
      <trkpt lat="48.18982" lon="6.82714">
        <ele>631.6</ele>
        <time>2025-01-31T14:14:26Z</time>
      </trkpt>
      <trkpt lat="48.18988" lon="6.82702">
        <ele>632.8</ele>
        <time>2025-01-31T14:14:35Z</time>
      </trkpt>
      <trkpt lat="48.18993" lon="6.8269">
        <ele>634.1</ele>
        <time>2025-01-31T14:14:43Z</time>
      </trkpt>
      <trkpt lat="48.18998" lon="6.82677">
        <ele>635.6</ele>
        <time>2025-01-31T14:14:51Z</time>
      </trkpt>
      <trkpt lat="48.19004" lon="6.82666">
        <ele>637.2</ele>
        <time>2025-01-31T14:14:59Z</time>
      </trkpt>
      <trkpt lat="48.19012" lon="6.82656">
        <ele>638.8</ele>
        <time>2025-01-31T14:15:07Z</time>
      </trkpt>
      <trkpt lat="48.19018" lon="6.82647">
        <ele>640.2</ele>
        <time>2025-01-31T14:15:15Z</time>
      </trkpt>
      <trkpt lat="48.19024" lon="6.82635">
        <ele>641.8</ele>
        <time>2025-01-31T14:15:24Z</time>
      </trkpt>
      <trkpt lat="48.19029" lon="6.82622">
        <ele>643.5</ele>
        <time>2025-01-31T14:15:32Z</time>
      </trkpt>
      <trkpt lat="48.19036" lon="6.82611">
        <ele>645.5</ele>
        <time>2025-01-31T14:15:41Z</time>
      </trkpt>
      <trkpt lat="48.19043" lon="6.82601">
        <ele>647.7</ele>
        <time>2025-01-31T14:15:49Z</time>
      </trkpt>
      <trkpt lat="48.19049" lon="6.8259">
        <ele>650</ele>
        <time>2025-01-31T14:15:57Z</time>
      </trkpt>
      <trkpt lat="48.19055" lon="6.82578">
        <ele>652.5</ele>
        <time>2025-01-31T14:16:08Z</time>
      </trkpt>
      <trkpt lat="48.19063" lon="6.82571">
        <ele>655.2</ele>
        <time>2025-01-31T14:16:19Z</time>
      </trkpt>
      <trkpt lat="48.19071" lon="6.82563">
        <ele>657.5</ele>
        <time>2025-01-31T14:16:30Z</time>
      </trkpt>
      <trkpt lat="48.19078" lon="6.82555">
        <ele>659.7</ele>
        <time>2025-01-31T14:16:42Z</time>
      </trkpt>
      <trkpt lat="48.19081" lon="6.82544">
        <ele>661.5</ele>
        <time>2025-01-31T14:17:04Z</time>
      </trkpt>
      <trkpt lat="48.19081" lon="6.82543">
        <ele>661.6</ele>
        <time>2025-01-31T14:17:05Z</time>
      </trkpt>
      <trkpt lat="48.19081" lon="6.82543">
        <ele>661.6</ele>
        <time>2025-01-31T14:17:06Z</time>
      </trkpt>
      <trkpt lat="48.19081" lon="6.82543">
        <ele>661.7</ele>
        <time>2025-01-31T14:17:07Z</time>
      </trkpt>
      <trkpt lat="48.1908" lon="6.82543">
        <ele>661.8</ele>
        <time>2025-01-31T14:17:08Z</time>
      </trkpt>
      <trkpt lat="48.19081" lon="6.82543">
        <ele>661.8</ele>
        <time>2025-01-31T14:17:17Z</time>
      </trkpt>
      <trkpt lat="48.19081" lon="6.82543">
        <ele>661.9</ele>
        <time>2025-01-31T14:17:18Z</time>
      </trkpt>
      <trkpt lat="48.19081" lon="6.82543">
        <ele>661.9</ele>
        <time>2025-01-31T14:17:25Z</time>
      </trkpt>
      <trkpt lat="48.19081" lon="6.82543">
        <ele>661.9</ele>
        <time>2025-01-31T14:17:26Z</time>
      </trkpt>
      <trkpt lat="48.19081" lon="6.82543">
        <ele>661.9</ele>
        <time>2025-01-31T14:17:29Z</time>
      </trkpt>
      <trkpt lat="48.19081" lon="6.82543">
        <ele>661.9</ele>
        <time>2025-01-31T14:17:30Z</time>
      </trkpt>
      <trkpt lat="48.19081" lon="6.82543">
        <ele>661.9</ele>
        <time>2025-01-31T14:17:31Z</time>
      </trkpt>
      <trkpt lat="48.19081" lon="6.82543">
        <ele>661.9</ele>
        <time>2025-01-31T14:18:19Z</time>
      </trkpt>
      <trkpt lat="48.19081" lon="6.82543">
        <ele>661.9</ele>
        <time>2025-01-31T14:18:20Z</time>
      </trkpt>
      <trkpt lat="48.19081" lon="6.82543">
        <ele>661.9</ele>
        <time>2025-01-31T14:18:21Z</time>
      </trkpt>
      <trkpt lat="48.19081" lon="6.82543">
        <ele>661.9</ele>
        <time>2025-01-31T14:18:22Z</time>
      </trkpt>
      <trkpt lat="48.19081" lon="6.82543">
        <ele>661.9</ele>
        <time>2025-01-31T14:18:23Z</time>
      </trkpt>
      <trkpt lat="48.19081" lon="6.82543">
        <ele>662</ele>
        <time>2025-01-31T14:18:24Z</time>
      </trkpt>
      <trkpt lat="48.19081" lon="6.82543">
        <ele>662</ele>
        <time>2025-01-31T14:18:25Z</time>
      </trkpt>
      <trkpt lat="48.19082" lon="6.82544">
        <ele>662.2</ele>
        <time>2025-01-31T14:18:34Z</time>
      </trkpt>
      <trkpt lat="48.19082" lon="6.82544">
        <ele>662.2</ele>
        <time>2025-01-31T14:18:35Z</time>
      </trkpt>
      <trkpt lat="48.19082" lon="6.82544">
        <ele>662.2</ele>
        <time>2025-01-31T14:18:36Z</time>
      </trkpt>
      <trkpt lat="48.19083" lon="6.82544">
        <ele>662.4</ele>
        <time>2025-01-31T14:18:42Z</time>
      </trkpt>
      <trkpt lat="48.19083" lon="6.82544">
        <ele>662.5</ele>
        <time>2025-01-31T14:18:43Z</time>
      </trkpt>
      <trkpt lat="48.19083" lon="6.82545">
        <ele>662.5</ele>
        <time>2025-01-31T14:18:44Z</time>
      </trkpt>
      <trkpt lat="48.19092" lon="6.82539">
        <ele>664.5</ele>
        <time>2025-01-31T14:18:58Z</time>
      </trkpt>
      <trkpt lat="48.19101" lon="6.82536">
        <ele>666.5</ele>
        <time>2025-01-31T14:19:05Z</time>
      </trkpt>
      <trkpt lat="48.19108" lon="6.82529">
        <ele>668.8</ele>
        <time>2025-01-31T14:19:13Z</time>
      </trkpt>
      <trkpt lat="48.19117" lon="6.82524">
        <ele>671.4</ele>
        <time>2025-01-31T14:19:24Z</time>
      </trkpt>
      <trkpt lat="48.19126" lon="6.8252">
        <ele>673.8</ele>
        <time>2025-01-31T14:19:35Z</time>
      </trkpt>
      <trkpt lat="48.19135" lon="6.82522">
        <ele>676.3</ele>
        <time>2025-01-31T14:19:43Z</time>
      </trkpt>
      <trkpt lat="48.19145" lon="6.82524">
        <ele>678.8</ele>
        <time>2025-01-31T14:19:54Z</time>
      </trkpt>
      <trkpt lat="48.19154" lon="6.82527">
        <ele>681.4</ele>
        <time>2025-01-31T14:20:01Z</time>
      </trkpt>
      <trkpt lat="48.19163" lon="6.82522">
        <ele>684.1</ele>
        <time>2025-01-31T14:20:14Z</time>
      </trkpt>
      <trkpt lat="48.19172" lon="6.82522">
        <ele>686.4</ele>
        <time>2025-01-31T14:20:20Z</time>
      </trkpt>
      <trkpt lat="48.1918" lon="6.82516">
        <ele>688.4</ele>
        <time>2025-01-31T14:20:31Z</time>
      </trkpt>
      <trkpt lat="48.19188" lon="6.8251">
        <ele>690</ele>
        <time>2025-01-31T14:20:39Z</time>
      </trkpt>
      <trkpt lat="48.19198" lon="6.82508">
        <ele>691.8</ele>
        <time>2025-01-31T14:20:47Z</time>
      </trkpt>
      <trkpt lat="48.19207" lon="6.82508">
        <ele>693.4</ele>
        <time>2025-01-31T14:20:59Z</time>
      </trkpt>
      <trkpt lat="48.19216" lon="6.82511">
        <ele>694.9</ele>
        <time>2025-01-31T14:21:06Z</time>
      </trkpt>
      <trkpt lat="48.19226" lon="6.82513">
        <ele>696</ele>
        <time>2025-01-31T14:21:14Z</time>
      </trkpt>
      <trkpt lat="48.19236" lon="6.8251">
        <ele>696.9</ele>
        <time>2025-01-31T14:21:23Z</time>
      </trkpt>
      <trkpt lat="48.19245" lon="6.82511">
        <ele>697.7</ele>
        <time>2025-01-31T14:21:30Z</time>
      </trkpt>
      <trkpt lat="48.19254" lon="6.82515">
        <ele>698.3</ele>
        <time>2025-01-31T14:21:36Z</time>
      </trkpt>
      <trkpt lat="48.19264" lon="6.82518">
        <ele>699.1</ele>
        <time>2025-01-31T14:21:43Z</time>
      </trkpt>
      <trkpt lat="48.19273" lon="6.82516">
        <ele>700.2</ele>
        <time>2025-01-31T14:21:52Z</time>
      </trkpt>
      <trkpt lat="48.19282" lon="6.8251">
        <ele>701.5</ele>
        <time>2025-01-31T14:22:03Z</time>
      </trkpt>
      <trkpt lat="48.1929" lon="6.82503">
        <ele>703</ele>
        <time>2025-01-31T14:22:12Z</time>
      </trkpt>
      <trkpt lat="48.19299" lon="6.82503">
        <ele>704.9</ele>
        <time>2025-01-31T14:22:28Z</time>
      </trkpt>
      <trkpt lat="48.19307" lon="6.82495">
        <ele>707.5</ele>
        <time>2025-01-31T14:22:37Z</time>
      </trkpt>
      <trkpt lat="48.19314" lon="6.82485">
        <ele>710.4</ele>
        <time>2025-01-31T14:22:45Z</time>
      </trkpt>
      <trkpt lat="48.19319" lon="6.82473">
        <ele>713.3</ele>
        <time>2025-01-31T14:22:52Z</time>
      </trkpt>
      <trkpt lat="48.19324" lon="6.82462">
        <ele>716.1</ele>
        <time>2025-01-31T14:23:01Z</time>
      </trkpt>
      <trkpt lat="48.19324" lon="6.82448">
        <ele>718.5</ele>
        <time>2025-01-31T14:23:15Z</time>
      </trkpt>
      <trkpt lat="48.19323" lon="6.82434">
        <ele>720.4</ele>
        <time>2025-01-31T14:23:29Z</time>
      </trkpt>
      <trkpt lat="48.19322" lon="6.82421">
        <ele>721.6</ele>
        <time>2025-01-31T14:23:41Z</time>
      </trkpt>
      <trkpt lat="48.1932" lon="6.82407">
        <ele>722.3</ele>
        <time>2025-01-31T14:23:50Z</time>
      </trkpt>
      <trkpt lat="48.19317" lon="6.82394">
        <ele>722.6</ele>
        <time>2025-01-31T14:24:00Z</time>
      </trkpt>
      <trkpt lat="48.1931" lon="6.82384">
        <ele>722.7</ele>
        <time>2025-01-31T14:24:07Z</time>
      </trkpt>
      <trkpt lat="48.19305" lon="6.8237">
        <ele>722.8</ele>
        <time>2025-01-31T14:24:16Z</time>
      </trkpt>
      <trkpt lat="48.19301" lon="6.82358">
        <ele>723</ele>
        <time>2025-01-31T14:24:24Z</time>
      </trkpt>
      <trkpt lat="48.19296" lon="6.82344">
        <ele>723.2</ele>
        <time>2025-01-31T14:24:32Z</time>
      </trkpt>
      <trkpt lat="48.19293" lon="6.82331">
        <ele>723.2</ele>
        <time>2025-01-31T14:24:40Z</time>
      </trkpt>
      <trkpt lat="48.19292" lon="6.82317">
        <ele>723.1</ele>
        <time>2025-01-31T14:24:46Z</time>
      </trkpt>
      <trkpt lat="48.19289" lon="6.82302">
        <ele>722.9</ele>
        <time>2025-01-31T14:24:53Z</time>
      </trkpt>
      <trkpt lat="48.19285" lon="6.8229">
        <ele>722.8</ele>
        <time>2025-01-31T14:25:01Z</time>
      </trkpt>
      <trkpt lat="48.19289" lon="6.82276">
        <ele>722.7</ele>
        <time>2025-01-31T14:25:10Z</time>
      </trkpt>
      <trkpt lat="48.19286" lon="6.82263">
        <ele>722.7</ele>
        <time>2025-01-31T14:25:16Z</time>
      </trkpt>
      <trkpt lat="48.19284" lon="6.82248">
        <ele>722.8</ele>
        <time>2025-01-31T14:25:25Z</time>
      </trkpt>
      <trkpt lat="48.19282" lon="6.82234">
        <ele>722.8</ele>
        <time>2025-01-31T14:25:33Z</time>
      </trkpt>
      <trkpt lat="48.19278" lon="6.8222">
        <ele>722.8</ele>
        <time>2025-01-31T14:25:39Z</time>
      </trkpt>
      <trkpt lat="48.19275" lon="6.82206">
        <ele>722.8</ele>
        <time>2025-01-31T14:25:46Z</time>
      </trkpt>
      <trkpt lat="48.19272" lon="6.82193">
        <ele>722.7</ele>
        <time>2025-01-31T14:25:52Z</time>
      </trkpt>
      <trkpt lat="48.1927" lon="6.82178">
        <ele>722.6</ele>
        <time>2025-01-31T14:26:00Z</time>
      </trkpt>
      <trkpt lat="48.19266" lon="6.82164">
        <ele>722.5</ele>
        <time>2025-01-31T14:26:07Z</time>
      </trkpt>
      <trkpt lat="48.19263" lon="6.82151">
        <ele>722.5</ele>
        <time>2025-01-31T14:26:14Z</time>
      </trkpt>
      <trkpt lat="48.19263" lon="6.82136">
        <ele>722.5</ele>
        <time>2025-01-31T14:26:22Z</time>
      </trkpt>
      <trkpt lat="48.19261" lon="6.82122">
        <ele>722.5</ele>
        <time>2025-01-31T14:26:30Z</time>
      </trkpt>
      <trkpt lat="48.1926" lon="6.82107">
        <ele>722.3</ele>
        <time>2025-01-31T14:26:38Z</time>
      </trkpt>
      <trkpt lat="48.19257" lon="6.82094">
        <ele>722.2</ele>
        <time>2025-01-31T14:26:43Z</time>
      </trkpt>
      <trkpt lat="48.19256" lon="6.82079">
        <ele>722.1</ele>
        <time>2025-01-31T14:26:51Z</time>
      </trkpt>
      <trkpt lat="48.19258" lon="6.82065">
        <ele>721.9</ele>
        <time>2025-01-31T14:27:00Z</time>
      </trkpt>
      <trkpt lat="48.19256" lon="6.8205">
        <ele>721.6</ele>
        <time>2025-01-31T14:27:08Z</time>
      </trkpt>
      <trkpt lat="48.19252" lon="6.82037">
        <ele>721.2</ele>
        <time>2025-01-31T14:27:15Z</time>
      </trkpt>
      <trkpt lat="48.19248" lon="6.82025">
        <ele>720.9</ele>
        <time>2025-01-31T14:27:22Z</time>
      </trkpt>
      <trkpt lat="48.19242" lon="6.82012">
        <ele>720.5</ele>
        <time>2025-01-31T14:27:34Z</time>
      </trkpt>
      <trkpt lat="48.19239" lon="6.81999">
        <ele>720.3</ele>
        <time>2025-01-31T14:27:46Z</time>
      </trkpt>
      <trkpt lat="48.19232" lon="6.81989">
        <ele>720.1</ele>
        <time>2025-01-31T14:27:54Z</time>
      </trkpt>
      <trkpt lat="48.19225" lon="6.81981">
        <ele>719.9</ele>
        <time>2025-01-31T14:28:02Z</time>
      </trkpt>
      <trkpt lat="48.19221" lon="6.81968">
        <ele>719.8</ele>
        <time>2025-01-31T14:28:10Z</time>
      </trkpt>
      <trkpt lat="48.19215" lon="6.81956">
        <ele>719.6</ele>
        <time>2025-01-31T14:28:18Z</time>
      </trkpt>
      <trkpt lat="48.19216" lon="6.81941">
        <ele>719.5</ele>
        <time>2025-01-31T14:28:28Z</time>
      </trkpt>
      <trkpt lat="48.19211" lon="6.81927">
        <ele>719.4</ele>
        <time>2025-01-31T14:28:35Z</time>
      </trkpt>
      <trkpt lat="48.19207" lon="6.81915">
        <ele>719.3</ele>
        <time>2025-01-31T14:28:43Z</time>
      </trkpt>
      <trkpt lat="48.19203" lon="6.81901">
        <ele>719.1</ele>
        <time>2025-01-31T14:28:51Z</time>
      </trkpt>
      <trkpt lat="48.19203" lon="6.81887">
        <ele>719</ele>
        <time>2025-01-31T14:29:01Z</time>
      </trkpt>
      <trkpt lat="48.19201" lon="6.81872">
        <ele>719</ele>
        <time>2025-01-31T14:29:09Z</time>
      </trkpt>
      <trkpt lat="48.19205" lon="6.81859">
        <ele>719</ele>
        <time>2025-01-31T14:29:17Z</time>
      </trkpt>
      <trkpt lat="48.19208" lon="6.81845">
        <ele>719.1</ele>
        <time>2025-01-31T14:29:27Z</time>
      </trkpt>
      <trkpt lat="48.19207" lon="6.81831">
        <ele>719.1</ele>
        <time>2025-01-31T14:29:34Z</time>
      </trkpt>
      <trkpt lat="48.19208" lon="6.81817">
        <ele>719.1</ele>
        <time>2025-01-31T14:29:41Z</time>
      </trkpt>
      <trkpt lat="48.19214" lon="6.81805">
        <ele>719</ele>
        <time>2025-01-31T14:29:50Z</time>
      </trkpt>
      <trkpt lat="48.19219" lon="6.81791">
        <ele>718.9</ele>
        <time>2025-01-31T14:29:56Z</time>
      </trkpt>
      <trkpt lat="48.19221" lon="6.81776">
        <ele>718.6</ele>
        <time>2025-01-31T14:30:05Z</time>
      </trkpt>
      <trkpt lat="48.19225" lon="6.81762">
        <ele>718.3</ele>
        <time>2025-01-31T14:30:10Z</time>
      </trkpt>
      <trkpt lat="48.19228" lon="6.8175">
        <ele>718</ele>
        <time>2025-01-31T14:30:16Z</time>
      </trkpt>
      <trkpt lat="48.19235" lon="6.8174">
        <ele>717.5</ele>
        <time>2025-01-31T14:30:24Z</time>
      </trkpt>
      <trkpt lat="48.19244" lon="6.81736">
        <ele>717</ele>
        <time>2025-01-31T14:30:34Z</time>
      </trkpt>
      <trkpt lat="48.19253" lon="6.81736">
        <ele>716.4</ele>
        <time>2025-01-31T14:30:43Z</time>
      </trkpt>
      <trkpt lat="48.19263" lon="6.81732">
        <ele>715.7</ele>
        <time>2025-01-31T14:30:50Z</time>
      </trkpt>
      <trkpt lat="48.19272" lon="6.81725">
        <ele>714.9</ele>
        <time>2025-01-31T14:30:57Z</time>
      </trkpt>
      <trkpt lat="48.19281" lon="6.81721">
        <ele>714.3</ele>
        <time>2025-01-31T14:31:03Z</time>
      </trkpt>
      <trkpt lat="48.1929" lon="6.81715">
        <ele>713.7</ele>
        <time>2025-01-31T14:31:11Z</time>
      </trkpt>
      <trkpt lat="48.19298" lon="6.81709">
        <ele>713.3</ele>
        <time>2025-01-31T14:31:18Z</time>
      </trkpt>
      <trkpt lat="48.19305" lon="6.81697">
        <ele>712.9</ele>
        <time>2025-01-31T14:31:27Z</time>
      </trkpt>
      <trkpt lat="48.19313" lon="6.81687">
        <ele>712.5</ele>
        <time>2025-01-31T14:31:34Z</time>
      </trkpt>
      <trkpt lat="48.19318" lon="6.81675">
        <ele>712.2</ele>
        <time>2025-01-31T14:31:41Z</time>
      </trkpt>
      <trkpt lat="48.19323" lon="6.81662">
        <ele>711.7</ele>
        <time>2025-01-31T14:31:48Z</time>
      </trkpt>
      <trkpt lat="48.19329" lon="6.81651">
        <ele>711.2</ele>
        <time>2025-01-31T14:31:54Z</time>
      </trkpt>
      <trkpt lat="48.19332" lon="6.81637">
        <ele>710.6</ele>
        <time>2025-01-31T14:32:02Z</time>
      </trkpt>
      <trkpt lat="48.19335" lon="6.81624">
        <ele>709.9</ele>
        <time>2025-01-31T14:32:07Z</time>
      </trkpt>
      <trkpt lat="48.19336" lon="6.81607">
        <ele>708.7</ele>
        <time>2025-01-31T14:32:13Z</time>
      </trkpt>
      <trkpt lat="48.19339" lon="6.81592">
        <ele>707.6</ele>
        <time>2025-01-31T14:32:20Z</time>
      </trkpt>
      <trkpt lat="48.19341" lon="6.81577">
        <ele>706.8</ele>
        <time>2025-01-31T14:32:27Z</time>
      </trkpt>
      <trkpt lat="48.19341" lon="6.81563">
        <ele>706.2</ele>
        <time>2025-01-31T14:32:36Z</time>
      </trkpt>
      <trkpt lat="48.1934" lon="6.81549">
        <ele>706</ele>
        <time>2025-01-31T14:32:44Z</time>
      </trkpt>
      <trkpt lat="48.19343" lon="6.81534">
        <ele>706</ele>
        <time>2025-01-31T14:32:52Z</time>
      </trkpt>
      <trkpt lat="48.1935" lon="6.81525">
        <ele>706</ele>
        <time>2025-01-31T14:33:01Z</time>
      </trkpt>
      <trkpt lat="48.1936" lon="6.81525">
        <ele>705.9</ele>
        <time>2025-01-31T14:33:28Z</time>
      </trkpt>
      <trkpt lat="48.19365" lon="6.81518">
        <ele>705.6</ele>
        <time>2025-01-31T14:33:44Z</time>
      </trkpt>
      <trkpt lat="48.19365" lon="6.81518">
        <ele>705.6</ele>
        <time>2025-01-31T14:33:45Z</time>
      </trkpt>
      <trkpt lat="48.19365" lon="6.81516">
        <ele>705.5</ele>
        <time>2025-01-31T14:34:04Z</time>
      </trkpt>
      <trkpt lat="48.19365" lon="6.81516">
        <ele>705.5</ele>
        <time>2025-01-31T14:34:05Z</time>
      </trkpt>
      <trkpt lat="48.19365" lon="6.81516">
        <ele>705.5</ele>
        <time>2025-01-31T14:34:09Z</time>
      </trkpt>
      <trkpt lat="48.19365" lon="6.81516">
        <ele>705.5</ele>
        <time>2025-01-31T14:34:10Z</time>
      </trkpt>
      <trkpt lat="48.19365" lon="6.81516">
        <ele>705.5</ele>
        <time>2025-01-31T14:34:17Z</time>
      </trkpt>
      <trkpt lat="48.19365" lon="6.81516">
        <ele>705.4</ele>
        <time>2025-01-31T14:34:18Z</time>
      </trkpt>
      <trkpt lat="48.19365" lon="6.81516">
        <ele>705.4</ele>
        <time>2025-01-31T14:34:19Z</time>
      </trkpt>
      <trkpt lat="48.19365" lon="6.81516">
        <ele>705.4</ele>
        <time>2025-01-31T14:34:20Z</time>
      </trkpt>
      <trkpt lat="48.19365" lon="6.81516">
        <ele>705.4</ele>
        <time>2025-01-31T14:34:21Z</time>
      </trkpt>
      <trkpt lat="48.19365" lon="6.81516">
        <ele>705.4</ele>
        <time>2025-01-31T14:34:22Z</time>
      </trkpt>
      <trkpt lat="48.19366" lon="6.81516">
        <ele>705.4</ele>
        <time>2025-01-31T14:34:30Z</time>
      </trkpt>
      <trkpt lat="48.19366" lon="6.81516">
        <ele>705.4</ele>
        <time>2025-01-31T14:34:31Z</time>
      </trkpt>
      <trkpt lat="48.19368" lon="6.81519">
        <ele>705.2</ele>
        <time>2025-01-31T14:34:55Z</time>
      </trkpt>
      <trkpt lat="48.19369" lon="6.8152">
        <ele>705.1</ele>
        <time>2025-01-31T14:34:56Z</time>
      </trkpt>
      <trkpt lat="48.1936" lon="6.8152">
        <ele>704.8</ele>
        <time>2025-01-31T14:35:17Z</time>
      </trkpt>
      <trkpt lat="48.19353" lon="6.81515">
        <ele>704.6</ele>
        <time>2025-01-31T14:35:32Z</time>
      </trkpt>
      <trkpt lat="48.19353" lon="6.81515">
        <ele>704.6</ele>
        <time>2025-01-31T14:35:33Z</time>
      </trkpt>
      <trkpt lat="48.19353" lon="6.81515">
        <ele>704.6</ele>
        <time>2025-01-31T14:35:34Z</time>
      </trkpt>
      <trkpt lat="48.19353" lon="6.81515">
        <ele>704.6</ele>
        <time>2025-01-31T14:35:35Z</time>
      </trkpt>
      <trkpt lat="48.19353" lon="6.81515">
        <ele>704.6</ele>
        <time>2025-01-31T14:35:36Z</time>
      </trkpt>
      <trkpt lat="48.19352" lon="6.81513">
        <ele>704.6</ele>
        <time>2025-01-31T14:35:44Z</time>
      </trkpt>
      <trkpt lat="48.19352" lon="6.81513">
        <ele>704.6</ele>
        <time>2025-01-31T14:35:45Z</time>
      </trkpt>
      <trkpt lat="48.19352" lon="6.81514">
        <ele>704.6</ele>
        <time>2025-01-31T14:35:46Z</time>
      </trkpt>
      <trkpt lat="48.19352" lon="6.81514">
        <ele>704.5</ele>
        <time>2025-01-31T14:35:47Z</time>
      </trkpt>
      <trkpt lat="48.19352" lon="6.81515">
        <ele>704.5</ele>
        <time>2025-01-31T14:35:48Z</time>
      </trkpt>
      <trkpt lat="48.1935" lon="6.8153">
        <ele>703.9</ele>
        <time>2025-01-31T14:36:32Z</time>
      </trkpt>
      <trkpt lat="48.19345" lon="6.81541">
        <ele>702.7</ele>
        <time>2025-01-31T14:36:39Z</time>
      </trkpt>
      <trkpt lat="48.19337" lon="6.81533">
        <ele>701.2</ele>
        <time>2025-01-31T14:36:50Z</time>
      </trkpt>
      <trkpt lat="48.19336" lon="6.8152">
        <ele>700.2</ele>
        <time>2025-01-31T14:37:01Z</time>
      </trkpt>
      <trkpt lat="48.19336" lon="6.81519">
        <ele>700.2</ele>
        <time>2025-01-31T14:37:02Z</time>
      </trkpt>
      <trkpt lat="48.19336" lon="6.81519">
        <ele>700.2</ele>
        <time>2025-01-31T14:37:03Z</time>
      </trkpt>
      <trkpt lat="48.19336" lon="6.81519">
        <ele>700.2</ele>
        <time>2025-01-31T14:37:07Z</time>
      </trkpt>
      <trkpt lat="48.19336" lon="6.81519">
        <ele>700.2</ele>
        <time>2025-01-31T14:37:08Z</time>
      </trkpt>
      <trkpt lat="48.19336" lon="6.81519">
        <ele>700.2</ele>
        <time>2025-01-31T14:37:09Z</time>
      </trkpt>
      <trkpt lat="48.19336" lon="6.81519">
        <ele>700.2</ele>
        <time>2025-01-31T14:37:10Z</time>
      </trkpt>
      <trkpt lat="48.19336" lon="6.81519">
        <ele>700.2</ele>
        <time>2025-01-31T14:37:11Z</time>
      </trkpt>
      <trkpt lat="48.19336" lon="6.81517">
        <ele>700</ele>
        <time>2025-01-31T14:37:22Z</time>
      </trkpt>
      <trkpt lat="48.19336" lon="6.81515">
        <ele>700</ele>
        <time>2025-01-31T14:37:23Z</time>
      </trkpt>
      <trkpt lat="48.19336" lon="6.81514">
        <ele>699.9</ele>
        <time>2025-01-31T14:37:24Z</time>
      </trkpt>
      <trkpt lat="48.19333" lon="6.81501">
        <ele>699.6</ele>
        <time>2025-01-31T14:37:33Z</time>
      </trkpt>
      <trkpt lat="48.19329" lon="6.81489">
        <ele>699.3</ele>
        <time>2025-01-31T14:37:41Z</time>
      </trkpt>
      <trkpt lat="48.19325" lon="6.81475">
        <ele>698.5</ele>
        <time>2025-01-31T14:37:47Z</time>
      </trkpt>
      <trkpt lat="48.1932" lon="6.81462">
        <ele>697.5</ele>
        <time>2025-01-31T14:37:54Z</time>
      </trkpt>
      <trkpt lat="48.19314" lon="6.8145">
        <ele>696.5</ele>
        <time>2025-01-31T14:38:01Z</time>
      </trkpt>
      <trkpt lat="48.19309" lon="6.81438">
        <ele>695.4</ele>
        <time>2025-01-31T14:38:08Z</time>
      </trkpt>
      <trkpt lat="48.19304" lon="6.81427">
        <ele>694.1</ele>
        <time>2025-01-31T14:38:14Z</time>
      </trkpt>
      <trkpt lat="48.19299" lon="6.81415">
        <ele>692.8</ele>
        <time>2025-01-31T14:38:20Z</time>
      </trkpt>
      <trkpt lat="48.19293" lon="6.81405">
        <ele>691.6</ele>
        <time>2025-01-31T14:38:27Z</time>
      </trkpt>
      <trkpt lat="48.19287" lon="6.81394">
        <ele>690.6</ele>
        <time>2025-01-31T14:38:35Z</time>
      </trkpt>
      <trkpt lat="48.19282" lon="6.81382">
        <ele>689.8</ele>
        <time>2025-01-31T14:38:43Z</time>
      </trkpt>
      <trkpt lat="48.19277" lon="6.8137">
        <ele>689</ele>
        <time>2025-01-31T14:38:50Z</time>
      </trkpt>
      <trkpt lat="48.19272" lon="6.81358">
        <ele>688.3</ele>
        <time>2025-01-31T14:38:56Z</time>
      </trkpt>
      <trkpt lat="48.19266" lon="6.81347">
        <ele>687.6</ele>
        <time>2025-01-31T14:39:02Z</time>
      </trkpt>
      <trkpt lat="48.19259" lon="6.81337">
        <ele>687</ele>
        <time>2025-01-31T14:39:08Z</time>
      </trkpt>
      <trkpt lat="48.19252" lon="6.81327">
        <ele>686.6</ele>
        <time>2025-01-31T14:39:15Z</time>
      </trkpt>
      <trkpt lat="48.19245" lon="6.81318">
        <ele>686.1</ele>
        <time>2025-01-31T14:39:23Z</time>
      </trkpt>
      <trkpt lat="48.19239" lon="6.81307">
        <ele>685.7</ele>
        <time>2025-01-31T14:39:29Z</time>
      </trkpt>
      <trkpt lat="48.19234" lon="6.81296">
        <ele>685.4</ele>
        <time>2025-01-31T14:39:35Z</time>
      </trkpt>
      <trkpt lat="48.19228" lon="6.81284">
        <ele>684.9</ele>
        <time>2025-01-31T14:39:42Z</time>
      </trkpt>
      <trkpt lat="48.19224" lon="6.81272">
        <ele>684.6</ele>
        <time>2025-01-31T14:39:48Z</time>
      </trkpt>
      <trkpt lat="48.19219" lon="6.81259">
        <ele>684.2</ele>
        <time>2025-01-31T14:39:55Z</time>
      </trkpt>
      <trkpt lat="48.19213" lon="6.81248">
        <ele>683.8</ele>
        <time>2025-01-31T14:40:02Z</time>
      </trkpt>
      <trkpt lat="48.19208" lon="6.81235">
        <ele>683.4</ele>
        <time>2025-01-31T14:40:11Z</time>
      </trkpt>
      <trkpt lat="48.19203" lon="6.81223">
        <ele>683.1</ele>
        <time>2025-01-31T14:40:18Z</time>
      </trkpt>
      <trkpt lat="48.19198" lon="6.81211">
        <ele>682.7</ele>
        <time>2025-01-31T14:40:24Z</time>
      </trkpt>
      <trkpt lat="48.19194" lon="6.81197">
        <ele>682.3</ele>
        <time>2025-01-31T14:40:31Z</time>
      </trkpt>
      <trkpt lat="48.19192" lon="6.81183">
        <ele>681.9</ele>
        <time>2025-01-31T14:40:39Z</time>
      </trkpt>
      <trkpt lat="48.19188" lon="6.81169">
        <ele>681.6</ele>
        <time>2025-01-31T14:40:47Z</time>
      </trkpt>
      <trkpt lat="48.19184" lon="6.81155">
        <ele>681.2</ele>
        <time>2025-01-31T14:40:53Z</time>
      </trkpt>
      <trkpt lat="48.19181" lon="6.81142">
        <ele>680.8</ele>
        <time>2025-01-31T14:41:00Z</time>
      </trkpt>
      <trkpt lat="48.19176" lon="6.81129">
        <ele>680.5</ele>
        <time>2025-01-31T14:41:09Z</time>
      </trkpt>
      <trkpt lat="48.19174" lon="6.81114">
        <ele>680.1</ele>
        <time>2025-01-31T14:41:16Z</time>
      </trkpt>
      <trkpt lat="48.19171" lon="6.811">
        <ele>679.7</ele>
        <time>2025-01-31T14:41:23Z</time>
      </trkpt>
      <trkpt lat="48.19168" lon="6.81087">
        <ele>679.3</ele>
        <time>2025-01-31T14:41:30Z</time>
      </trkpt>
      <trkpt lat="48.19164" lon="6.81073">
        <ele>678.9</ele>
        <time>2025-01-31T14:41:34Z</time>
      </trkpt>
      <trkpt lat="48.19159" lon="6.8106">
        <ele>678.3</ele>
        <time>2025-01-31T14:41:40Z</time>
      </trkpt>
      <trkpt lat="48.19154" lon="6.81048">
        <ele>677.8</ele>
        <time>2025-01-31T14:41:47Z</time>
      </trkpt>
      <trkpt lat="48.19148" lon="6.81038">
        <ele>677.2</ele>
        <time>2025-01-31T14:41:54Z</time>
      </trkpt>
      <trkpt lat="48.19141" lon="6.81029">
        <ele>676.6</ele>
        <time>2025-01-31T14:42:01Z</time>
      </trkpt>
      <trkpt lat="48.19133" lon="6.81019">
        <ele>675.9</ele>
        <time>2025-01-31T14:42:07Z</time>
      </trkpt>
      <trkpt lat="48.19125" lon="6.8101">
        <ele>675.3</ele>
        <time>2025-01-31T14:42:14Z</time>
      </trkpt>
      <trkpt lat="48.19118" lon="6.81001">
        <ele>674.7</ele>
        <time>2025-01-31T14:42:20Z</time>
      </trkpt>
      <trkpt lat="48.1911" lon="6.80992">
        <ele>674</ele>
        <time>2025-01-31T14:42:28Z</time>
      </trkpt>
      <trkpt lat="48.19102" lon="6.80985">
        <ele>673.5</ele>
        <time>2025-01-31T14:42:36Z</time>
      </trkpt>
      <trkpt lat="48.19094" lon="6.80976">
        <ele>673.3</ele>
        <time>2025-01-31T14:42:44Z</time>
      </trkpt>
      <trkpt lat="48.19085" lon="6.80971">
        <ele>673.1</ele>
        <time>2025-01-31T14:42:50Z</time>
      </trkpt>
      <trkpt lat="48.19075" lon="6.80973">
        <ele>672.8</ele>
        <time>2025-01-31T14:42:56Z</time>
      </trkpt>
      <trkpt lat="48.19067" lon="6.80979">
        <ele>672.6</ele>
        <time>2025-01-31T14:43:02Z</time>
      </trkpt>
      <trkpt lat="48.19059" lon="6.80988">
        <ele>672.2</ele>
        <time>2025-01-31T14:43:09Z</time>
      </trkpt>
      <trkpt lat="48.19054" lon="6.81">
        <ele>671.8</ele>
        <time>2025-01-31T14:43:16Z</time>
      </trkpt>
      <trkpt lat="48.19049" lon="6.81013">
        <ele>671.4</ele>
        <time>2025-01-31T14:43:25Z</time>
      </trkpt>
      <trkpt lat="48.19045" lon="6.81026">
        <ele>671.2</ele>
        <time>2025-01-31T14:43:33Z</time>
      </trkpt>
      <trkpt lat="48.19041" lon="6.8104">
        <ele>671</ele>
        <time>2025-01-31T14:43:39Z</time>
      </trkpt>
      <trkpt lat="48.19036" lon="6.81054">
        <ele>670.8</ele>
        <time>2025-01-31T14:43:46Z</time>
      </trkpt>
      <trkpt lat="48.19032" lon="6.81067">
        <ele>670.5</ele>
        <time>2025-01-31T14:43:52Z</time>
      </trkpt>
      <trkpt lat="48.1903" lon="6.8108">
        <ele>670.3</ele>
        <time>2025-01-31T14:44:03Z</time>
      </trkpt>
      <trkpt lat="48.19026" lon="6.81093">
        <ele>670</ele>
        <time>2025-01-31T14:44:11Z</time>
      </trkpt>
      <trkpt lat="48.1902" lon="6.81105">
        <ele>669.8</ele>
        <time>2025-01-31T14:44:17Z</time>
      </trkpt>
      <trkpt lat="48.19016" lon="6.81118">
        <ele>669.6</ele>
        <time>2025-01-31T14:44:22Z</time>
      </trkpt>
      <trkpt lat="48.19012" lon="6.81131">
        <ele>669.4</ele>
        <time>2025-01-31T14:44:29Z</time>
      </trkpt>
      <trkpt lat="48.19006" lon="6.81144">
        <ele>669.1</ele>
        <time>2025-01-31T14:44:36Z</time>
      </trkpt>
      <trkpt lat="48.19" lon="6.81156">
        <ele>668.8</ele>
        <time>2025-01-31T14:44:43Z</time>
      </trkpt>
      <trkpt lat="48.18994" lon="6.81167">
        <ele>668.6</ele>
        <time>2025-01-31T14:44:50Z</time>
      </trkpt>
      <trkpt lat="48.18988" lon="6.81179">
        <ele>668.4</ele>
        <time>2025-01-31T14:44:57Z</time>
      </trkpt>
      <trkpt lat="48.18983" lon="6.81192">
        <ele>668.3</ele>
        <time>2025-01-31T14:45:05Z</time>
      </trkpt>
      <trkpt lat="48.1898" lon="6.81204">
        <ele>668.1</ele>
        <time>2025-01-31T14:45:13Z</time>
      </trkpt>
      <trkpt lat="48.18975" lon="6.81218">
        <ele>667.9</ele>
        <time>2025-01-31T14:45:21Z</time>
      </trkpt>
      <trkpt lat="48.18973" lon="6.81231">
        <ele>667.7</ele>
        <time>2025-01-31T14:45:29Z</time>
      </trkpt>
      <trkpt lat="48.1897" lon="6.81245">
        <ele>667.5</ele>
        <time>2025-01-31T14:45:38Z</time>
      </trkpt>
      <trkpt lat="48.18968" lon="6.8126">
        <ele>667.2</ele>
        <time>2025-01-31T14:45:46Z</time>
      </trkpt>
      <trkpt lat="48.18965" lon="6.81274">
        <ele>666.9</ele>
        <time>2025-01-31T14:45:54Z</time>
      </trkpt>
      <trkpt lat="48.18961" lon="6.81287">
        <ele>666.6</ele>
        <time>2025-01-31T14:46:02Z</time>
      </trkpt>
      <trkpt lat="48.18959" lon="6.813">
        <ele>666.4</ele>
        <time>2025-01-31T14:46:10Z</time>
      </trkpt>
      <trkpt lat="48.18955" lon="6.81314">
        <ele>666.3</ele>
        <time>2025-01-31T14:46:17Z</time>
      </trkpt>
      <trkpt lat="48.18952" lon="6.81328">
        <ele>666.2</ele>
        <time>2025-01-31T14:46:25Z</time>
      </trkpt>
      <trkpt lat="48.1895" lon="6.81342">
        <ele>666</ele>
        <time>2025-01-31T14:46:33Z</time>
      </trkpt>
      <trkpt lat="48.18949" lon="6.81356">
        <ele>665.7</ele>
        <time>2025-01-31T14:46:40Z</time>
      </trkpt>
      <trkpt lat="48.18946" lon="6.81371">
        <ele>665.5</ele>
        <time>2025-01-31T14:46:48Z</time>
      </trkpt>
      <trkpt lat="48.18946" lon="6.81385">
        <ele>665.2</ele>
        <time>2025-01-31T14:46:56Z</time>
      </trkpt>
      <trkpt lat="48.18945" lon="6.81398">
        <ele>665</ele>
        <time>2025-01-31T14:47:03Z</time>
      </trkpt>
      <trkpt lat="48.18944" lon="6.81413">
        <ele>664.7</ele>
        <time>2025-01-31T14:47:10Z</time>
      </trkpt>
      <trkpt lat="48.18944" lon="6.8143">
        <ele>664.5</ele>
        <time>2025-01-31T14:47:17Z</time>
      </trkpt>
      <trkpt lat="48.18943" lon="6.81444">
        <ele>664.3</ele>
        <time>2025-01-31T14:47:23Z</time>
      </trkpt>
      <trkpt lat="48.18942" lon="6.81458">
        <ele>664.1</ele>
        <time>2025-01-31T14:47:31Z</time>
      </trkpt>
      <trkpt lat="48.18942" lon="6.81472">
        <ele>663.8</ele>
        <time>2025-01-31T14:47:37Z</time>
      </trkpt>
      <trkpt lat="48.18941" lon="6.81485">
        <ele>663.6</ele>
        <time>2025-01-31T14:47:44Z</time>
      </trkpt>
      <trkpt lat="48.18941" lon="6.815">
        <ele>663.3</ele>
        <time>2025-01-31T14:47:51Z</time>
      </trkpt>
      <trkpt lat="48.18939" lon="6.81514">
        <ele>663.1</ele>
        <time>2025-01-31T14:47:58Z</time>
      </trkpt>
      <trkpt lat="48.18936" lon="6.81529">
        <ele>662.9</ele>
        <time>2025-01-31T14:48:05Z</time>
      </trkpt>
      <trkpt lat="48.18935" lon="6.81544">
        <ele>662.7</ele>
        <time>2025-01-31T14:48:12Z</time>
      </trkpt>
      <trkpt lat="48.18936" lon="6.81558">
        <ele>662.5</ele>
        <time>2025-01-31T14:48:17Z</time>
      </trkpt>
      <trkpt lat="48.18936" lon="6.81572">
        <ele>662.2</ele>
        <time>2025-01-31T14:48:24Z</time>
      </trkpt>
      <trkpt lat="48.18936" lon="6.81587">
        <ele>662</ele>
        <time>2025-01-31T14:48:33Z</time>
      </trkpt>
      <trkpt lat="48.18935" lon="6.81601">
        <ele>661.8</ele>
        <time>2025-01-31T14:48:39Z</time>
      </trkpt>
      <trkpt lat="48.18935" lon="6.81616">
        <ele>661.6</ele>
        <time>2025-01-31T14:48:48Z</time>
      </trkpt>
      <trkpt lat="48.18934" lon="6.81631">
        <ele>661.4</ele>
        <time>2025-01-31T14:48:56Z</time>
      </trkpt>
      <trkpt lat="48.18935" lon="6.81645">
        <ele>661.3</ele>
        <time>2025-01-31T14:49:04Z</time>
      </trkpt>
      <trkpt lat="48.18936" lon="6.8166">
        <ele>661.1</ele>
        <time>2025-01-31T14:49:12Z</time>
      </trkpt>
      <trkpt lat="48.18935" lon="6.81674">
        <ele>661</ele>
        <time>2025-01-31T14:49:19Z</time>
      </trkpt>
      <trkpt lat="48.18937" lon="6.81687">
        <ele>660.8</ele>
        <time>2025-01-31T14:49:25Z</time>
      </trkpt>
      <trkpt lat="48.1894" lon="6.81701">
        <ele>660.6</ele>
        <time>2025-01-31T14:49:32Z</time>
      </trkpt>
      <trkpt lat="48.18944" lon="6.81714">
        <ele>660.4</ele>
        <time>2025-01-31T14:49:39Z</time>
      </trkpt>
      <trkpt lat="48.18945" lon="6.81729">
        <ele>660.2</ele>
        <time>2025-01-31T14:49:47Z</time>
      </trkpt>
      <trkpt lat="48.18948" lon="6.81743">
        <ele>660</ele>
        <time>2025-01-31T14:49:56Z</time>
      </trkpt>
      <trkpt lat="48.18952" lon="6.81756">
        <ele>659.9</ele>
        <time>2025-01-31T14:50:02Z</time>
      </trkpt>
      <trkpt lat="48.18957" lon="6.81768">
        <ele>659.8</ele>
        <time>2025-01-31T14:50:08Z</time>
      </trkpt>
      <trkpt lat="48.18963" lon="6.81779">
        <ele>659.6</ele>
        <time>2025-01-31T14:50:16Z</time>
      </trkpt>
      <trkpt lat="48.1897" lon="6.8179">
        <ele>659.4</ele>
        <time>2025-01-31T14:50:24Z</time>
      </trkpt>
      <trkpt lat="48.18976" lon="6.818">
        <ele>659.1</ele>
        <time>2025-01-31T14:50:33Z</time>
      </trkpt>
      <trkpt lat="48.18982" lon="6.81812">
        <ele>658.8</ele>
        <time>2025-01-31T14:50:42Z</time>
      </trkpt>
      <trkpt lat="48.18989" lon="6.81822">
        <ele>658.4</ele>
        <time>2025-01-31T14:50:49Z</time>
      </trkpt>
      <trkpt lat="48.18996" lon="6.8183">
        <ele>658</ele>
        <time>2025-01-31T14:50:57Z</time>
      </trkpt>
      <trkpt lat="48.18999" lon="6.81832">
        <ele>657.9</ele>
        <time>2025-01-31T14:51:02Z</time>
      </trkpt>
      <trkpt lat="48.18999" lon="6.81833">
        <ele>657.8</ele>
        <time>2025-01-31T14:51:03Z</time>
      </trkpt>
      <trkpt lat="48.19" lon="6.81834">
        <ele>657.8</ele>
        <time>2025-01-31T14:51:04Z</time>
      </trkpt>
      <trkpt lat="48.19001" lon="6.81835">
        <ele>657.7</ele>
        <time>2025-01-31T14:51:05Z</time>
      </trkpt>
      <trkpt lat="48.19009" lon="6.81844">
        <ele>657.4</ele>
        <time>2025-01-31T14:51:12Z</time>
      </trkpt>
      <trkpt lat="48.19016" lon="6.81853">
        <ele>657.1</ele>
        <time>2025-01-31T14:51:19Z</time>
      </trkpt>
      <trkpt lat="48.19023" lon="6.81862">
        <ele>656.8</ele>
        <time>2025-01-31T14:51:26Z</time>
      </trkpt>
      <trkpt lat="48.19029" lon="6.81875">
        <ele>656.4</ele>
        <time>2025-01-31T14:51:32Z</time>
      </trkpt>
      <trkpt lat="48.19037" lon="6.81884">
        <ele>656.1</ele>
        <time>2025-01-31T14:51:39Z</time>
      </trkpt>
      <trkpt lat="48.19043" lon="6.81897">
        <ele>655.6</ele>
        <time>2025-01-31T14:51:46Z</time>
      </trkpt>
      <trkpt lat="48.19048" lon="6.81909">
        <ele>655.3</ele>
        <time>2025-01-31T14:51:54Z</time>
      </trkpt>
      <trkpt lat="48.19044" lon="6.81917">
        <ele>655.1</ele>
        <time>2025-01-31T14:52:04Z</time>
      </trkpt>
      <trkpt lat="48.19044" lon="6.81918">
        <ele>655.1</ele>
        <time>2025-01-31T14:52:05Z</time>
      </trkpt>
      <trkpt lat="48.1904" lon="6.81924">
        <ele>654.9</ele>
        <time>2025-01-31T14:52:19Z</time>
      </trkpt>
      <trkpt lat="48.19042" lon="6.81926">
        <ele>654.9</ele>
        <time>2025-01-31T14:52:20Z</time>
      </trkpt>
      <trkpt lat="48.19051" lon="6.81933">
        <ele>654.6</ele>
        <time>2025-01-31T14:52:25Z</time>
      </trkpt>
      <trkpt lat="48.19057" lon="6.81944">
        <ele>654.4</ele>
        <time>2025-01-31T14:52:31Z</time>
      </trkpt>
      <trkpt lat="48.19064" lon="6.81954">
        <ele>654.1</ele>
        <time>2025-01-31T14:52:39Z</time>
      </trkpt>
      <trkpt lat="48.1907" lon="6.81967">
        <ele>653.8</ele>
        <time>2025-01-31T14:52:46Z</time>
      </trkpt>
      <trkpt lat="48.19075" lon="6.81979">
        <ele>653.6</ele>
        <time>2025-01-31T14:52:54Z</time>
      </trkpt>
      <trkpt lat="48.1908" lon="6.81993">
        <ele>653.3</ele>
        <time>2025-01-31T14:53:01Z</time>
      </trkpt>
      <trkpt lat="48.19084" lon="6.82005">
        <ele>653</ele>
        <time>2025-01-31T14:53:09Z</time>
      </trkpt>
      <trkpt lat="48.19087" lon="6.82019">
        <ele>652.7</ele>
        <time>2025-01-31T14:53:17Z</time>
      </trkpt>
      <trkpt lat="48.19089" lon="6.82033">
        <ele>652.3</ele>
        <time>2025-01-31T14:53:24Z</time>
      </trkpt>
      <trkpt lat="48.19093" lon="6.82045">
        <ele>652</ele>
        <time>2025-01-31T14:53:30Z</time>
      </trkpt>
      <trkpt lat="48.19097" lon="6.82058">
        <ele>651.6</ele>
        <time>2025-01-31T14:53:37Z</time>
      </trkpt>
      <trkpt lat="48.19101" lon="6.82072">
        <ele>651.2</ele>
        <time>2025-01-31T14:53:45Z</time>
      </trkpt>
      <trkpt lat="48.19104" lon="6.82086">
        <ele>650.8</ele>
        <time>2025-01-31T14:53:54Z</time>
      </trkpt>
      <trkpt lat="48.19104" lon="6.821">
        <ele>650.4</ele>
        <time>2025-01-31T14:54:02Z</time>
      </trkpt>
      <trkpt lat="48.19108" lon="6.82115">
        <ele>650</ele>
        <time>2025-01-31T14:54:11Z</time>
      </trkpt>
      <trkpt lat="48.19109" lon="6.8213">
        <ele>649.4</ele>
        <time>2025-01-31T14:54:18Z</time>
      </trkpt>
      <trkpt lat="48.19114" lon="6.82142">
        <ele>648.7</ele>
        <time>2025-01-31T14:54:25Z</time>
      </trkpt>
      <trkpt lat="48.19116" lon="6.82157">
        <ele>648</ele>
        <time>2025-01-31T14:54:33Z</time>
      </trkpt>
      <trkpt lat="48.19119" lon="6.82172">
        <ele>647.3</ele>
        <time>2025-01-31T14:54:41Z</time>
      </trkpt>
      <trkpt lat="48.19119" lon="6.82186">
        <ele>646.7</ele>
        <time>2025-01-31T14:54:48Z</time>
      </trkpt>
      <trkpt lat="48.1912" lon="6.822">
        <ele>646.2</ele>
        <time>2025-01-31T14:54:55Z</time>
      </trkpt>
      <trkpt lat="48.19117" lon="6.82214">
        <ele>645.5</ele>
        <time>2025-01-31T14:55:00Z</time>
      </trkpt>
      <trkpt lat="48.19116" lon="6.82229">
        <ele>644.8</ele>
        <time>2025-01-31T14:55:07Z</time>
      </trkpt>
      <trkpt lat="48.19117" lon="6.82244">
        <ele>644.1</ele>
        <time>2025-01-31T14:55:14Z</time>
      </trkpt>
      <trkpt lat="48.19121" lon="6.82257">
        <ele>643.4</ele>
        <time>2025-01-31T14:55:22Z</time>
      </trkpt>
      <trkpt lat="48.19125" lon="6.82273">
        <ele>642.7</ele>
        <time>2025-01-31T14:55:31Z</time>
      </trkpt>
      <trkpt lat="48.19128" lon="6.82287">
        <ele>642</ele>
        <time>2025-01-31T14:55:36Z</time>
      </trkpt>
      <trkpt lat="48.19128" lon="6.82302">
        <ele>641.3</ele>
        <time>2025-01-31T14:55:41Z</time>
      </trkpt>
      <trkpt lat="48.19128" lon="6.82316">
        <ele>640.5</ele>
        <time>2025-01-31T14:55:46Z</time>
      </trkpt>
      <trkpt lat="48.1913" lon="6.82331">
        <ele>639.6</ele>
        <time>2025-01-31T14:55:52Z</time>
      </trkpt>
      <trkpt lat="48.19134" lon="6.82346">
        <ele>638.6</ele>
        <time>2025-01-31T14:55:59Z</time>
      </trkpt>
      <trkpt lat="48.19129" lon="6.82359">
        <ele>637.6</ele>
        <time>2025-01-31T14:56:06Z</time>
      </trkpt>
      <trkpt lat="48.19123" lon="6.8237">
        <ele>636.8</ele>
        <time>2025-01-31T14:56:13Z</time>
      </trkpt>
      <trkpt lat="48.19115" lon="6.82378">
        <ele>636.1</ele>
        <time>2025-01-31T14:56:19Z</time>
      </trkpt>
      <trkpt lat="48.19107" lon="6.82387">
        <ele>635.3</ele>
        <time>2025-01-31T14:56:26Z</time>
      </trkpt>
      <trkpt lat="48.19099" lon="6.82393">
        <ele>634.6</ele>
        <time>2025-01-31T14:56:35Z</time>
      </trkpt>
      <trkpt lat="48.1909" lon="6.82403">
        <ele>633.7</ele>
        <time>2025-01-31T14:56:42Z</time>
      </trkpt>
      <trkpt lat="48.19082" lon="6.82413">
        <ele>633</ele>
        <time>2025-01-31T14:56:49Z</time>
      </trkpt>
      <trkpt lat="48.19074" lon="6.82422">
        <ele>632.2</ele>
        <time>2025-01-31T14:56:56Z</time>
      </trkpt>
      <trkpt lat="48.19065" lon="6.82431">
        <ele>631.4</ele>
        <time>2025-01-31T14:57:03Z</time>
      </trkpt>
      <trkpt lat="48.19057" lon="6.8244">
        <ele>630.8</ele>
        <time>2025-01-31T14:57:08Z</time>
      </trkpt>
      <trkpt lat="48.19049" lon="6.82447">
        <ele>630.3</ele>
        <time>2025-01-31T14:57:13Z</time>
      </trkpt>
      <trkpt lat="48.1904" lon="6.82455">
        <ele>629.8</ele>
        <time>2025-01-31T14:57:18Z</time>
      </trkpt>
      <trkpt lat="48.19031" lon="6.82461">
        <ele>629.3</ele>
        <time>2025-01-31T14:57:23Z</time>
      </trkpt>
      <trkpt lat="48.19024" lon="6.8247">
        <ele>628.8</ele>
        <time>2025-01-31T14:57:28Z</time>
      </trkpt>
      <trkpt lat="48.19018" lon="6.8248">
        <ele>628.4</ele>
        <time>2025-01-31T14:57:35Z</time>
      </trkpt>
      <trkpt lat="48.19012" lon="6.82492">
        <ele>627.8</ele>
        <time>2025-01-31T14:57:42Z</time>
      </trkpt>
      <trkpt lat="48.19006" lon="6.82503">
        <ele>627.2</ele>
        <time>2025-01-31T14:57:49Z</time>
      </trkpt>
      <trkpt lat="48.19004" lon="6.82516">
        <ele>626.6</ele>
        <time>2025-01-31T14:57:58Z</time>
      </trkpt>
      <trkpt lat="48.18998" lon="6.82529">
        <ele>625.9</ele>
        <time>2025-01-31T14:58:05Z</time>
      </trkpt>
      <trkpt lat="48.18993" lon="6.82542">
        <ele>625.2</ele>
        <time>2025-01-31T14:58:11Z</time>
      </trkpt>
      <trkpt lat="48.18992" lon="6.82556">
        <ele>624.6</ele>
        <time>2025-01-31T14:58:18Z</time>
      </trkpt>
      <trkpt lat="48.18989" lon="6.8257">
        <ele>623.9</ele>
        <time>2025-01-31T14:58:31Z</time>
      </trkpt>
      <trkpt lat="48.18985" lon="6.82582">
        <ele>623.2</ele>
        <time>2025-01-31T14:58:38Z</time>
      </trkpt>
      <trkpt lat="48.18979" lon="6.82594">
        <ele>622.5</ele>
        <time>2025-01-31T14:58:45Z</time>
      </trkpt>
      <trkpt lat="48.1897" lon="6.82603">
        <ele>621.7</ele>
        <time>2025-01-31T14:58:52Z</time>
      </trkpt>
      <trkpt lat="48.18961" lon="6.82606">
        <ele>621.1</ele>
        <time>2025-01-31T14:58:58Z</time>
      </trkpt>
      <trkpt lat="48.1895" lon="6.82607">
        <ele>620.5</ele>
        <time>2025-01-31T14:59:03Z</time>
      </trkpt>
      <trkpt lat="48.1894" lon="6.82604">
        <ele>620.2</ele>
        <time>2025-01-31T14:59:08Z</time>
      </trkpt>
      <trkpt lat="48.18932" lon="6.82596">
        <ele>620</ele>
        <time>2025-01-31T14:59:14Z</time>
      </trkpt>
      <trkpt lat="48.18923" lon="6.82591">
        <ele>619.9</ele>
        <time>2025-01-31T14:59:21Z</time>
      </trkpt>
      <trkpt lat="48.18914" lon="6.82585">
        <ele>619.8</ele>
        <time>2025-01-31T14:59:27Z</time>
      </trkpt>
      <trkpt lat="48.18906" lon="6.82579">
        <ele>619.7</ele>
        <time>2025-01-31T14:59:33Z</time>
      </trkpt>
      <trkpt lat="48.18897" lon="6.82575">
        <ele>619.7</ele>
        <time>2025-01-31T14:59:40Z</time>
      </trkpt>
      <trkpt lat="48.18897" lon="6.8259">
        <ele>620.5</ele>
        <time>2025-01-31T14:59:46Z</time>
      </trkpt>
      <trkpt lat="48.18902" lon="6.82603">
        <ele>621.6</ele>
        <time>2025-01-31T14:59:51Z</time>
      </trkpt>
      <trkpt lat="48.1891" lon="6.82612">
        <ele>622.7</ele>
        <time>2025-01-31T14:59:57Z</time>
      </trkpt>
      <trkpt lat="48.18918" lon="6.82622">
        <ele>623.7</ele>
        <time>2025-01-31T15:00:05Z</time>
      </trkpt>
      <trkpt lat="48.18925" lon="6.8263">
        <ele>624.6</ele>
        <time>2025-01-31T15:00:13Z</time>
      </trkpt>
      <trkpt lat="48.1893" lon="6.82641">
        <ele>625.4</ele>
        <time>2025-01-31T15:00:20Z</time>
      </trkpt>
      <trkpt lat="48.18933" lon="6.82654">
        <ele>626.1</ele>
        <time>2025-01-31T15:00:27Z</time>
      </trkpt>
      <trkpt lat="48.18935" lon="6.82668">
        <ele>626.9</ele>
        <time>2025-01-31T15:00:35Z</time>
      </trkpt>
      <trkpt lat="48.18938" lon="6.82682">
        <ele>627.6</ele>
        <time>2025-01-31T15:00:42Z</time>
      </trkpt>
      <trkpt lat="48.18945" lon="6.82691">
        <ele>628.4</ele>
        <time>2025-01-31T15:00:49Z</time>
      </trkpt>
      <trkpt lat="48.18953" lon="6.827">
        <ele>629.1</ele>
        <time>2025-01-31T15:00:55Z</time>
      </trkpt>
      <trkpt lat="48.18959" lon="6.8271">
        <ele>629.9</ele>
        <time>2025-01-31T15:01:03Z</time>
      </trkpt>
      <trkpt lat="48.18956" lon="6.82724">
        <ele>630.7</ele>
        <time>2025-01-31T15:01:11Z</time>
      </trkpt>
      <trkpt lat="48.1895" lon="6.82737">
        <ele>631.2</ele>
        <time>2025-01-31T15:01:17Z</time>
      </trkpt>
      <trkpt lat="48.18943" lon="6.82748">
        <ele>633</ele>
        <time>2025-01-31T15:01:25Z</time>
      </trkpt>
      <trkpt lat="48.18937" lon="6.82759">
        <ele>634.3</ele>
        <time>2025-01-31T15:01:32Z</time>
      </trkpt>
      <trkpt lat="48.18931" lon="6.8277">
        <ele>635.6</ele>
        <time>2025-01-31T15:01:39Z</time>
      </trkpt>
      <trkpt lat="48.18928" lon="6.82783">
        <ele>636.9</ele>
        <time>2025-01-31T15:01:47Z</time>
      </trkpt>
      <trkpt lat="48.18924" lon="6.82797">
        <ele>638.2</ele>
        <time>2025-01-31T15:01:55Z</time>
      </trkpt>
      <trkpt lat="48.18919" lon="6.82809">
        <ele>639.3</ele>
        <time>2025-01-31T15:02:01Z</time>
      </trkpt>
      <trkpt lat="48.18915" lon="6.82822">
        <ele>640.4</ele>
        <time>2025-01-31T15:02:08Z</time>
      </trkpt>
      <trkpt lat="48.18913" lon="6.82838">
        <ele>641.5</ele>
        <time>2025-01-31T15:02:17Z</time>
      </trkpt>
      <trkpt lat="48.18909" lon="6.82852">
        <ele>642.4</ele>
        <time>2025-01-31T15:02:23Z</time>
      </trkpt>
      <trkpt lat="48.18904" lon="6.82864">
        <ele>643.2</ele>
        <time>2025-01-31T15:02:27Z</time>
      </trkpt>
      <trkpt lat="48.18901" lon="6.82878">
        <ele>643.9</ele>
        <time>2025-01-31T15:02:34Z</time>
      </trkpt>
      <trkpt lat="48.189" lon="6.82894">
        <ele>644.4</ele>
        <time>2025-01-31T15:02:42Z</time>
      </trkpt>
      <trkpt lat="48.18897" lon="6.82907">
        <ele>644.8</ele>
        <time>2025-01-31T15:02:48Z</time>
      </trkpt>
      <trkpt lat="48.18896" lon="6.82922">
        <ele>645.1</ele>
        <time>2025-01-31T15:02:56Z</time>
      </trkpt>
      <trkpt lat="48.18893" lon="6.82936">
        <ele>645.4</ele>
        <time>2025-01-31T15:03:02Z</time>
      </trkpt>
      <trkpt lat="48.18892" lon="6.8295">
        <ele>645.6</ele>
        <time>2025-01-31T15:03:11Z</time>
      </trkpt>
      <trkpt lat="48.18888" lon="6.82962">
        <ele>645.9</ele>
        <time>2025-01-31T15:03:17Z</time>
      </trkpt>
      <trkpt lat="48.18886" lon="6.82977">
        <ele>646.3</ele>
        <time>2025-01-31T15:03:24Z</time>
      </trkpt>
      <trkpt lat="48.18883" lon="6.82991">
        <ele>646.8</ele>
        <time>2025-01-31T15:03:31Z</time>
      </trkpt>
      <trkpt lat="48.18878" lon="6.83003">
        <ele>647.6</ele>
        <time>2025-01-31T15:03:36Z</time>
      </trkpt>
      <trkpt lat="48.18874" lon="6.83017">
        <ele>648.5</ele>
        <time>2025-01-31T15:03:42Z</time>
      </trkpt>
      <trkpt lat="48.18872" lon="6.83033">
        <ele>649.8</ele>
        <time>2025-01-31T15:03:50Z</time>
      </trkpt>
      <trkpt lat="48.18867" lon="6.83045">
        <ele>650.9</ele>
        <time>2025-01-31T15:03:55Z</time>
      </trkpt>
      <trkpt lat="48.18862" lon="6.83056">
        <ele>652</ele>
        <time>2025-01-31T15:04:01Z</time>
      </trkpt>
      <trkpt lat="48.18856" lon="6.83068">
        <ele>653.1</ele>
        <time>2025-01-31T15:04:10Z</time>
      </trkpt>
      <trkpt lat="48.18854" lon="6.83083">
        <ele>653.8</ele>
        <time>2025-01-31T15:04:18Z</time>
      </trkpt>
      <trkpt lat="48.18851" lon="6.83097">
        <ele>654.3</ele>
        <time>2025-01-31T15:04:25Z</time>
      </trkpt>
      <trkpt lat="48.18847" lon="6.8311">
        <ele>654.6</ele>
        <time>2025-01-31T15:04:34Z</time>
      </trkpt>
      <trkpt lat="48.18844" lon="6.83123">
        <ele>654.7</ele>
        <time>2025-01-31T15:04:42Z</time>
      </trkpt>
      <trkpt lat="48.1884" lon="6.83136">
        <ele>655</ele>
        <time>2025-01-31T15:04:51Z</time>
      </trkpt>
      <trkpt lat="48.18834" lon="6.83148">
        <ele>655.4</ele>
        <time>2025-01-31T15:04:58Z</time>
      </trkpt>
      <trkpt lat="48.18827" lon="6.83159">
        <ele>656</ele>
        <time>2025-01-31T15:05:05Z</time>
      </trkpt>
      <trkpt lat="48.1882" lon="6.83168">
        <ele>656.6</ele>
        <time>2025-01-31T15:05:10Z</time>
      </trkpt>
      <trkpt lat="48.18811" lon="6.83175">
        <ele>657.3</ele>
        <time>2025-01-31T15:05:17Z</time>
      </trkpt>
      <trkpt lat="48.18803" lon="6.83185">
        <ele>657.8</ele>
        <time>2025-01-31T15:05:25Z</time>
      </trkpt>
      <trkpt lat="48.18796" lon="6.83195">
        <ele>657.9</ele>
        <time>2025-01-31T15:05:31Z</time>
      </trkpt>
      <trkpt lat="48.1879" lon="6.83207">
        <ele>657</ele>
        <time>2025-01-31T15:05:39Z</time>
      </trkpt>
      <trkpt lat="48.18783" lon="6.83216">
        <ele>655.9</ele>
        <time>2025-01-31T15:05:44Z</time>
      </trkpt>
      <trkpt lat="48.18777" lon="6.83226">
        <ele>654.9</ele>
        <time>2025-01-31T15:05:50Z</time>
      </trkpt>
      <trkpt lat="48.18769" lon="6.83234">
        <ele>653.9</ele>
        <time>2025-01-31T15:05:58Z</time>
      </trkpt>
      <trkpt lat="48.1876" lon="6.8324">
        <ele>652.9</ele>
        <time>2025-01-31T15:06:06Z</time>
      </trkpt>
      <trkpt lat="48.18751" lon="6.83247">
        <ele>652.2</ele>
        <time>2025-01-31T15:06:13Z</time>
      </trkpt>
      <trkpt lat="48.18742" lon="6.83251">
        <ele>651.6</ele>
        <time>2025-01-31T15:06:20Z</time>
      </trkpt>
      <trkpt lat="48.18732" lon="6.83254">
        <ele>651.1</ele>
        <time>2025-01-31T15:06:27Z</time>
      </trkpt>
      <trkpt lat="48.18721" lon="6.83257">
        <ele>650.7</ele>
        <time>2025-01-31T15:06:35Z</time>
      </trkpt>
      <trkpt lat="48.18711" lon="6.83258">
        <ele>650.5</ele>
        <time>2025-01-31T15:06:45Z</time>
      </trkpt>
      <trkpt lat="48.18701" lon="6.8326">
        <ele>650.3</ele>
        <time>2025-01-31T15:06:53Z</time>
      </trkpt>
      <trkpt lat="48.18693" lon="6.83266">
        <ele>650.2</ele>
        <time>2025-01-31T15:06:58Z</time>
      </trkpt>
      <trkpt lat="48.18684" lon="6.83269">
        <ele>650.1</ele>
        <time>2025-01-31T15:07:05Z</time>
      </trkpt>
      <trkpt lat="48.18674" lon="6.83271">
        <ele>649.9</ele>
        <time>2025-01-31T15:07:11Z</time>
      </trkpt>
      <trkpt lat="48.18666" lon="6.83275">
        <ele>649.6</ele>
        <time>2025-01-31T15:07:19Z</time>
      </trkpt>
      <trkpt lat="48.18656" lon="6.83275">
        <ele>649.2</ele>
        <time>2025-01-31T15:07:26Z</time>
      </trkpt>
      <trkpt lat="48.18646" lon="6.83281">
        <ele>648.7</ele>
        <time>2025-01-31T15:07:32Z</time>
      </trkpt>
      <trkpt lat="48.18636" lon="6.83284">
        <ele>648.2</ele>
        <time>2025-01-31T15:07:39Z</time>
      </trkpt>
      <trkpt lat="48.18627" lon="6.83289">
        <ele>647.6</ele>
        <time>2025-01-31T15:07:48Z</time>
      </trkpt>
      <trkpt lat="48.1862" lon="6.83297">
        <ele>646.8</ele>
        <time>2025-01-31T15:07:55Z</time>
      </trkpt>
      <trkpt lat="48.1861" lon="6.83299">
        <ele>645.7</ele>
        <time>2025-01-31T15:08:02Z</time>
      </trkpt>
      <trkpt lat="48.18602" lon="6.83307">
        <ele>644.6</ele>
        <time>2025-01-31T15:08:09Z</time>
      </trkpt>
      <trkpt lat="48.18593" lon="6.83314">
        <ele>643.5</ele>
        <time>2025-01-31T15:08:16Z</time>
      </trkpt>
      <trkpt lat="48.18585" lon="6.83321">
        <ele>642.6</ele>
        <time>2025-01-31T15:08:21Z</time>
      </trkpt>
      <trkpt lat="48.18576" lon="6.8333">
        <ele>641.8</ele>
        <time>2025-01-31T15:08:27Z</time>
      </trkpt>
      <trkpt lat="48.18569" lon="6.83341">
        <ele>641.1</ele>
        <time>2025-01-31T15:08:33Z</time>
      </trkpt>
      <trkpt lat="48.18562" lon="6.8335">
        <ele>640.6</ele>
        <time>2025-01-31T15:08:41Z</time>
      </trkpt>
      <trkpt lat="48.18555" lon="6.83359">
        <ele>640.1</ele>
        <time>2025-01-31T15:08:49Z</time>
      </trkpt>
      <trkpt lat="48.18547" lon="6.83367">
        <ele>639.6</ele>
        <time>2025-01-31T15:08:58Z</time>
      </trkpt>
      <trkpt lat="48.18539" lon="6.83374">
        <ele>639.2</ele>
        <time>2025-01-31T15:09:04Z</time>
      </trkpt>
      <trkpt lat="48.18531" lon="6.8338">
        <ele>638.7</ele>
        <time>2025-01-31T15:09:11Z</time>
      </trkpt>
      <trkpt lat="48.18523" lon="6.83387">
        <ele>638.4</ele>
        <time>2025-01-31T15:09:19Z</time>
      </trkpt>
      <trkpt lat="48.18514" lon="6.83392">
        <ele>638.1</ele>
        <time>2025-01-31T15:09:27Z</time>
      </trkpt>
      <trkpt lat="48.18505" lon="6.83397">
        <ele>637.9</ele>
        <time>2025-01-31T15:09:34Z</time>
      </trkpt>
      <trkpt lat="48.18495" lon="6.834">
        <ele>637.8</ele>
        <time>2025-01-31T15:09:40Z</time>
      </trkpt>
      <trkpt lat="48.18486" lon="6.83405">
        <ele>637.8</ele>
        <time>2025-01-31T15:09:46Z</time>
      </trkpt>
      <trkpt lat="48.18476" lon="6.83407">
        <ele>637.8</ele>
        <time>2025-01-31T15:09:54Z</time>
      </trkpt>
      <trkpt lat="48.18467" lon="6.83413">
        <ele>637.7</ele>
        <time>2025-01-31T15:10:03Z</time>
      </trkpt>
      <trkpt lat="48.18458" lon="6.83417">
        <ele>637.7</ele>
        <time>2025-01-31T15:10:09Z</time>
      </trkpt>
      <trkpt lat="48.18448" lon="6.83419">
        <ele>637.8</ele>
        <time>2025-01-31T15:10:17Z</time>
      </trkpt>
      <trkpt lat="48.18438" lon="6.83422">
        <ele>638</ele>
        <time>2025-01-31T15:10:25Z</time>
      </trkpt>
      <trkpt lat="48.18428" lon="6.83424">
        <ele>638.4</ele>
        <time>2025-01-31T15:10:32Z</time>
      </trkpt>
      <trkpt lat="48.18418" lon="6.83425">
        <ele>638.9</ele>
        <time>2025-01-31T15:10:38Z</time>
      </trkpt>
      <trkpt lat="48.18408" lon="6.83428">
        <ele>639.3</ele>
        <time>2025-01-31T15:10:46Z</time>
      </trkpt>
      <trkpt lat="48.18399" lon="6.83429">
        <ele>639.6</ele>
        <time>2025-01-31T15:10:51Z</time>
      </trkpt>
      <trkpt lat="48.18389" lon="6.83431">
        <ele>639.6</ele>
        <time>2025-01-31T15:10:57Z</time>
      </trkpt>
      <trkpt lat="48.1838" lon="6.83427">
        <ele>639.3</ele>
        <time>2025-01-31T15:11:04Z</time>
      </trkpt>
      <trkpt lat="48.1837" lon="6.83423">
        <ele>638.8</ele>
        <time>2025-01-31T15:11:12Z</time>
      </trkpt>
      <trkpt lat="48.1836" lon="6.83422">
        <ele>638.1</ele>
        <time>2025-01-31T15:11:19Z</time>
      </trkpt>
      <trkpt lat="48.18352" lon="6.83427">
        <ele>637.5</ele>
        <time>2025-01-31T15:11:28Z</time>
      </trkpt>
      <trkpt lat="48.18346" lon="6.8344">
        <ele>636.9</ele>
        <time>2025-01-31T15:11:34Z</time>
      </trkpt>
      <trkpt lat="48.18343" lon="6.83455">
        <ele>636.3</ele>
        <time>2025-01-31T15:11:42Z</time>
      </trkpt>
      <trkpt lat="48.18341" lon="6.83469">
        <ele>636</ele>
        <time>2025-01-31T15:11:48Z</time>
      </trkpt>
      <trkpt lat="48.1834" lon="6.83484">
        <ele>635.9</ele>
        <time>2025-01-31T15:11:56Z</time>
      </trkpt>
      <trkpt lat="48.18339" lon="6.83499">
        <ele>635.8</ele>
        <time>2025-01-31T15:12:05Z</time>
      </trkpt>
      <trkpt lat="48.18342" lon="6.83512">
        <ele>635.9</ele>
        <time>2025-01-31T15:12:11Z</time>
      </trkpt>
      <trkpt lat="48.1834" lon="6.83525">
        <ele>635.9</ele>
        <time>2025-01-31T15:12:18Z</time>
      </trkpt>
      <trkpt lat="48.18335" lon="6.83537">
        <ele>635.9</ele>
        <time>2025-01-31T15:12:26Z</time>
      </trkpt>
      <trkpt lat="48.18332" lon="6.83551">
        <ele>635.8</ele>
        <time>2025-01-31T15:12:35Z</time>
      </trkpt>
      <trkpt lat="48.18327" lon="6.83563">
        <ele>635.8</ele>
        <time>2025-01-31T15:12:41Z</time>
      </trkpt>
      <trkpt lat="48.18322" lon="6.83576">
        <ele>635.6</ele>
        <time>2025-01-31T15:12:48Z</time>
      </trkpt>
      <trkpt lat="48.18316" lon="6.83588">
        <ele>635.3</ele>
        <time>2025-01-31T15:12:57Z</time>
      </trkpt>
      <trkpt lat="48.18312" lon="6.83601">
        <ele>635</ele>
        <time>2025-01-31T15:13:05Z</time>
      </trkpt>
      <trkpt lat="48.18306" lon="6.83614">
        <ele>634.6</ele>
        <time>2025-01-31T15:13:12Z</time>
      </trkpt>
      <trkpt lat="48.18301" lon="6.83626">
        <ele>634.3</ele>
        <time>2025-01-31T15:13:19Z</time>
      </trkpt>
      <trkpt lat="48.18296" lon="6.83638">
        <ele>634.1</ele>
        <time>2025-01-31T15:13:25Z</time>
      </trkpt>
      <trkpt lat="48.18296" lon="6.83652">
        <ele>634.2</ele>
        <time>2025-01-31T15:13:34Z</time>
      </trkpt>
      <trkpt lat="48.18303" lon="6.83661">
        <ele>634.8</ele>
        <time>2025-01-31T15:13:41Z</time>
      </trkpt>
      <trkpt lat="48.18311" lon="6.8367">
        <ele>635.4</ele>
        <time>2025-01-31T15:13:49Z</time>
      </trkpt>
      <trkpt lat="48.18317" lon="6.83681">
        <ele>635.9</ele>
        <time>2025-01-31T15:13:56Z</time>
      </trkpt>
      <trkpt lat="48.18321" lon="6.83693">
        <ele>636.3</ele>
        <time>2025-01-31T15:14:02Z</time>
      </trkpt>
      <trkpt lat="48.18324" lon="6.83707">
        <ele>636.5</ele>
        <time>2025-01-31T15:14:08Z</time>
      </trkpt>
      <trkpt lat="48.1833" lon="6.83717">
        <ele>636.7</ele>
        <time>2025-01-31T15:14:17Z</time>
      </trkpt>
      <trkpt lat="48.18338" lon="6.83724">
        <ele>636.9</ele>
        <time>2025-01-31T15:14:31Z</time>
      </trkpt>
      <trkpt lat="48.18346" lon="6.83732">
        <ele>637.1</ele>
        <time>2025-01-31T15:14:41Z</time>
      </trkpt>
      <trkpt lat="48.18355" lon="6.83735">
        <ele>635.4</ele>
        <time>2025-01-31T15:14:49Z</time>
      </trkpt>
      <trkpt lat="48.18364" lon="6.83742">
        <ele>634</ele>
        <time>2025-01-31T15:14:55Z</time>
      </trkpt>
      <trkpt lat="48.18373" lon="6.8375">
        <ele>632.5</ele>
        <time>2025-01-31T15:15:01Z</time>
      </trkpt>
      <trkpt lat="48.18381" lon="6.83758">
        <ele>630.7</ele>
        <time>2025-01-31T15:15:09Z</time>
      </trkpt>
      <trkpt lat="48.1839" lon="6.83764">
        <ele>628</ele>
        <time>2025-01-31T15:15:16Z</time>
      </trkpt>
      <trkpt lat="48.18397" lon="6.83775">
        <ele>626.1</ele>
        <time>2025-01-31T15:15:23Z</time>
      </trkpt>
      <trkpt lat="48.18405" lon="6.83782">
        <ele>624.6</ele>
        <time>2025-01-31T15:15:30Z</time>
      </trkpt>
      <trkpt lat="48.18411" lon="6.83794">
        <ele>624.1</ele>
        <time>2025-01-31T15:15:36Z</time>
      </trkpt>
      <trkpt lat="48.18419" lon="6.83804">
        <ele>621.9</ele>
        <time>2025-01-31T15:15:43Z</time>
      </trkpt>
      <trkpt lat="48.18425" lon="6.83813">
        <ele>620.7</ele>
        <time>2025-01-31T15:15:51Z</time>
      </trkpt>
      <trkpt lat="48.18434" lon="6.83819">
        <ele>618.7</ele>
        <time>2025-01-31T15:15:57Z</time>
      </trkpt>
      <trkpt lat="48.18441" lon="6.83828">
        <ele>615.8</ele>
        <time>2025-01-31T15:16:04Z</time>
      </trkpt>
      <trkpt lat="48.18448" lon="6.83838">
        <ele>613.7</ele>
        <time>2025-01-31T15:16:16Z</time>
      </trkpt>
      <trkpt lat="48.18454" lon="6.83848">
        <ele>612.5</ele>
        <time>2025-01-31T15:16:23Z</time>
      </trkpt>
      <trkpt lat="48.18459" lon="6.83861">
        <ele>611.3</ele>
        <time>2025-01-31T15:16:29Z</time>
      </trkpt>
      <trkpt lat="48.18467" lon="6.83871">
        <ele>609.9</ele>
        <time>2025-01-31T15:16:35Z</time>
      </trkpt>
      <trkpt lat="48.18475" lon="6.83878">
        <ele>608.6</ele>
        <time>2025-01-31T15:16:42Z</time>
      </trkpt>
      <trkpt lat="48.18485" lon="6.83885">
        <ele>607.3</ele>
        <time>2025-01-31T15:16:49Z</time>
      </trkpt>
      <trkpt lat="48.18492" lon="6.83894">
        <ele>606</ele>
        <time>2025-01-31T15:16:56Z</time>
      </trkpt>
      <trkpt lat="48.185" lon="6.83902">
        <ele>604.7</ele>
        <time>2025-01-31T15:17:01Z</time>
      </trkpt>
      <trkpt lat="48.18506" lon="6.8391">
        <ele>603.7</ele>
        <time>2025-01-31T15:17:11Z</time>
      </trkpt>
      <trkpt lat="48.18507" lon="6.8391">
        <ele>603.5</ele>
        <time>2025-01-31T15:17:12Z</time>
      </trkpt>
      <trkpt lat="48.18508" lon="6.8391">
        <ele>603.4</ele>
        <time>2025-01-31T15:17:13Z</time>
      </trkpt>
      <trkpt lat="48.18508" lon="6.83911">
        <ele>603.3</ele>
        <time>2025-01-31T15:17:14Z</time>
      </trkpt>
      <trkpt lat="48.18509" lon="6.83911">
        <ele>603.3</ele>
        <time>2025-01-31T15:17:15Z</time>
      </trkpt>
      <trkpt lat="48.18509" lon="6.83912">
        <ele>603.1</ele>
        <time>2025-01-31T15:17:16Z</time>
      </trkpt>
      <trkpt lat="48.18516" lon="6.83922">
        <ele>601.9</ele>
        <time>2025-01-31T15:17:24Z</time>
      </trkpt>
      <trkpt lat="48.18524" lon="6.83931">
        <ele>600.6</ele>
        <time>2025-01-31T15:17:30Z</time>
      </trkpt>
      <trkpt lat="48.18532" lon="6.83938">
        <ele>599.4</ele>
        <time>2025-01-31T15:17:38Z</time>
      </trkpt>
      <trkpt lat="48.18539" lon="6.8395">
        <ele>598</ele>
        <time>2025-01-31T15:17:45Z</time>
      </trkpt>
      <trkpt lat="48.18544" lon="6.83961">
        <ele>596.8</ele>
        <time>2025-01-31T15:17:52Z</time>
      </trkpt>
      <trkpt lat="48.18549" lon="6.83973">
        <ele>595.6</ele>
        <time>2025-01-31T15:18:02Z</time>
      </trkpt>
      <trkpt lat="48.18554" lon="6.83985">
        <ele>594.3</ele>
        <time>2025-01-31T15:18:12Z</time>
      </trkpt>
      <trkpt lat="48.18555" lon="6.83999">
        <ele>593.1</ele>
        <time>2025-01-31T15:18:21Z</time>
      </trkpt>
      <trkpt lat="48.1856" lon="6.84011">
        <ele>591.9</ele>
        <time>2025-01-31T15:18:29Z</time>
      </trkpt>
      <trkpt lat="48.18565" lon="6.84022">
        <ele>590.7</ele>
        <time>2025-01-31T15:18:37Z</time>
      </trkpt>
      <trkpt lat="48.18569" lon="6.84034">
        <ele>589.5</ele>
        <time>2025-01-31T15:18:47Z</time>
      </trkpt>
      <trkpt lat="48.18576" lon="6.84025">
        <ele>583.3</ele>
        <time>2025-01-31T15:18:54Z</time>
      </trkpt>
      <trkpt lat="48.18583" lon="6.84013">
        <ele>576.5</ele>
        <time>2025-01-31T15:19:01Z</time>
      </trkpt>
      <trkpt lat="48.18583" lon="6.83999">
        <ele>571.5</ele>
        <time>2025-01-31T15:19:09Z</time>
      </trkpt>
      <trkpt lat="48.18589" lon="6.83987">
        <ele>570.3</ele>
        <time>2025-01-31T15:19:17Z</time>
      </trkpt>
      <trkpt lat="48.18595" lon="6.83975">
        <ele>568.9</ele>
        <time>2025-01-31T15:19:28Z</time>
      </trkpt>
      <trkpt lat="48.18602" lon="6.83964">
        <ele>567.7</ele>
        <time>2025-01-31T15:19:35Z</time>
      </trkpt>
      <trkpt lat="48.18606" lon="6.83952">
        <ele>566.5</ele>
        <time>2025-01-31T15:19:43Z</time>
      </trkpt>
      <trkpt lat="48.18608" lon="6.83938">
        <ele>565.3</ele>
        <time>2025-01-31T15:19:52Z</time>
      </trkpt>
      <trkpt lat="48.1861" lon="6.83924">
        <ele>564.1</ele>
        <time>2025-01-31T15:20:00Z</time>
      </trkpt>
      <trkpt lat="48.18614" lon="6.83915">
        <ele>563.3</ele>
        <time>2025-01-31T15:20:07Z</time>
      </trkpt>
      <trkpt lat="48.18615" lon="6.83914">
        <ele>563.1</ele>
        <time>2025-01-31T15:20:08Z</time>
      </trkpt>
      <trkpt lat="48.18615" lon="6.83914">
        <ele>563</ele>
        <time>2025-01-31T15:20:09Z</time>
      </trkpt>
      <trkpt lat="48.18615" lon="6.83908">
        <ele>562.6</ele>
        <time>2025-01-31T15:20:16Z</time>
      </trkpt>
      <trkpt lat="48.18614" lon="6.83907">
        <ele>562.4</ele>
        <time>2025-01-31T15:20:17Z</time>
      </trkpt>
      <trkpt lat="48.18614" lon="6.83906">
        <ele>562.3</ele>
        <time>2025-01-31T15:20:18Z</time>
      </trkpt>
      <trkpt lat="48.18615" lon="6.83892">
        <ele>561.1</ele>
        <time>2025-01-31T15:20:31Z</time>
      </trkpt>
      <trkpt lat="48.18618" lon="6.83879">
        <ele>559.9</ele>
        <time>2025-01-31T15:20:39Z</time>
      </trkpt>
      <trkpt lat="48.18616" lon="6.83865">
        <ele>558.8</ele>
        <time>2025-01-31T15:20:45Z</time>
      </trkpt>
      <trkpt lat="48.18618" lon="6.83852">
        <ele>557.6</ele>
        <time>2025-01-31T15:20:52Z</time>
      </trkpt>
      <trkpt lat="48.18618" lon="6.83836">
        <ele>556.3</ele>
        <time>2025-01-31T15:20:57Z</time>
      </trkpt>
      <trkpt lat="48.18627" lon="6.8383">
        <ele>554.9</ele>
        <time>2025-01-31T15:21:06Z</time>
      </trkpt>
      <trkpt lat="48.18637" lon="6.83834">
        <ele>554.2</ele>
        <time>2025-01-31T15:21:13Z</time>
      </trkpt>
      <trkpt lat="48.18646" lon="6.83834">
        <ele>553.9</ele>
        <time>2025-01-31T15:21:20Z</time>
      </trkpt>
      <trkpt lat="48.18655" lon="6.83837">
        <ele>553.7</ele>
        <time>2025-01-31T15:21:26Z</time>
      </trkpt>
      <trkpt lat="48.18664" lon="6.8384">
        <ele>553.6</ele>
        <time>2025-01-31T15:21:33Z</time>
      </trkpt>
      <trkpt lat="48.18674" lon="6.83842">
        <ele>553.6</ele>
        <time>2025-01-31T15:21:40Z</time>
      </trkpt>
      <trkpt lat="48.18683" lon="6.83845">
        <ele>553.5</ele>
        <time>2025-01-31T15:21:46Z</time>
      </trkpt>
      <trkpt lat="48.18693" lon="6.83848">
        <ele>553.5</ele>
        <time>2025-01-31T15:21:53Z</time>
      </trkpt>
      <trkpt lat="48.18703" lon="6.83852">
        <ele>553.5</ele>
        <time>2025-01-31T15:22:01Z</time>
      </trkpt>
      <trkpt lat="48.18713" lon="6.83853">
        <ele>553.5</ele>
        <time>2025-01-31T15:22:09Z</time>
      </trkpt>
      <trkpt lat="48.18722" lon="6.83855">
        <ele>553.4</ele>
        <time>2025-01-31T15:22:18Z</time>
      </trkpt>
      <trkpt lat="48.18731" lon="6.83858">
        <ele>553.3</ele>
        <time>2025-01-31T15:22:26Z</time>
      </trkpt>
      <trkpt lat="48.18742" lon="6.8386">
        <ele>553.1</ele>
        <time>2025-01-31T15:22:34Z</time>
      </trkpt>
      <trkpt lat="48.1875" lon="6.83866">
        <ele>552.8</ele>
        <time>2025-01-31T15:22:41Z</time>
      </trkpt>
      <trkpt lat="48.18758" lon="6.83874">
        <ele>552.3</ele>
        <time>2025-01-31T15:22:48Z</time>
      </trkpt>
      <trkpt lat="48.18765" lon="6.83882">
        <ele>551.6</ele>
        <time>2025-01-31T15:22:55Z</time>
      </trkpt>
      <trkpt lat="48.18774" lon="6.83889">
        <ele>550.8</ele>
        <time>2025-01-31T15:23:01Z</time>
      </trkpt>
      <trkpt lat="48.18781" lon="6.839">
        <ele>549.9</ele>
        <time>2025-01-31T15:23:07Z</time>
      </trkpt>
      <trkpt lat="48.18788" lon="6.83912">
        <ele>548.6</ele>
        <time>2025-01-31T15:23:13Z</time>
      </trkpt>
      <trkpt lat="48.18794" lon="6.83923">
        <ele>547.1</ele>
        <time>2025-01-31T15:23:20Z</time>
      </trkpt>
      <trkpt lat="48.18801" lon="6.83932">
        <ele>545.6</ele>
        <time>2025-01-31T15:23:26Z</time>
      </trkpt>
      <trkpt lat="48.18809" lon="6.83935">
        <ele>544.1</ele>
        <time>2025-01-31T15:23:33Z</time>
      </trkpt>
      <trkpt lat="48.18819" lon="6.83938">
        <ele>542.7</ele>
        <time>2025-01-31T15:23:42Z</time>
      </trkpt>
      <trkpt lat="48.18828" lon="6.83938">
        <ele>541.5</ele>
        <time>2025-01-31T15:23:49Z</time>
      </trkpt>
      <trkpt lat="48.18838" lon="6.83936">
        <ele>540.3</ele>
        <time>2025-01-31T15:23:56Z</time>
      </trkpt>
      <trkpt lat="48.18849" lon="6.83937">
        <ele>539.1</ele>
        <time>2025-01-31T15:24:03Z</time>
      </trkpt>
      <trkpt lat="48.18859" lon="6.83937">
        <ele>538.1</ele>
        <time>2025-01-31T15:24:10Z</time>
      </trkpt>
      <trkpt lat="48.18868" lon="6.83935">
        <ele>537.2</ele>
        <time>2025-01-31T15:24:18Z</time>
      </trkpt>
      <trkpt lat="48.18878" lon="6.83933">
        <ele>536.4</ele>
        <time>2025-01-31T15:24:24Z</time>
      </trkpt>
      <trkpt lat="48.18887" lon="6.8393">
        <ele>535.5</ele>
        <time>2025-01-31T15:24:31Z</time>
      </trkpt>
      <trkpt lat="48.18897" lon="6.83929">
        <ele>534.6</ele>
        <time>2025-01-31T15:24:39Z</time>
      </trkpt>
      <trkpt lat="48.18907" lon="6.83925">
        <ele>533.5</ele>
        <time>2025-01-31T15:24:48Z</time>
      </trkpt>
      <trkpt lat="48.18917" lon="6.83924">
        <ele>532.6</ele>
        <time>2025-01-31T15:24:56Z</time>
      </trkpt>
      <trkpt lat="48.18927" lon="6.8392">
        <ele>531.6</ele>
        <time>2025-01-31T15:25:03Z</time>
      </trkpt>
      <trkpt lat="48.18936" lon="6.83921">
        <ele>530.8</ele>
        <time>2025-01-31T15:25:12Z</time>
      </trkpt>
      <trkpt lat="48.18945" lon="6.83926">
        <ele>530</ele>
        <time>2025-01-31T15:25:19Z</time>
      </trkpt>
      <trkpt lat="48.18954" lon="6.83933">
        <ele>529.3</ele>
        <time>2025-01-31T15:25:25Z</time>
      </trkpt>
      <trkpt lat="48.18961" lon="6.83944">
        <ele>528.7</ele>
        <time>2025-01-31T15:25:32Z</time>
      </trkpt>
      <trkpt lat="48.18965" lon="6.83956">
        <ele>528.1</ele>
        <time>2025-01-31T15:25:39Z</time>
      </trkpt>
      <trkpt lat="48.18971" lon="6.83968">
        <ele>527.5</ele>
        <time>2025-01-31T15:25:47Z</time>
      </trkpt>
      <trkpt lat="48.18975" lon="6.83981">
        <ele>526.8</ele>
        <time>2025-01-31T15:25:55Z</time>
      </trkpt>
      <trkpt lat="48.18979" lon="6.83994">
        <ele>525.9</ele>
        <time>2025-01-31T15:26:02Z</time>
      </trkpt>
      <trkpt lat="48.18983" lon="6.84007">
        <ele>524.8</ele>
        <time>2025-01-31T15:26:10Z</time>
      </trkpt>
      <trkpt lat="48.1899" lon="6.84019">
        <ele>523.5</ele>
        <time>2025-01-31T15:26:18Z</time>
      </trkpt>
      <trkpt lat="48.18996" lon="6.84031">
        <ele>522</ele>
        <time>2025-01-31T15:26:25Z</time>
      </trkpt>
      <trkpt lat="48.19002" lon="6.84044">
        <ele>520.6</ele>
        <time>2025-01-31T15:26:32Z</time>
      </trkpt>
      <trkpt lat="48.19009" lon="6.84054">
        <ele>519.5</ele>
        <time>2025-01-31T15:26:39Z</time>
      </trkpt>
      <trkpt lat="48.19016" lon="6.84064">
        <ele>518.3</ele>
        <time>2025-01-31T15:26:48Z</time>
      </trkpt>
      <trkpt lat="48.19026" lon="6.8407">
        <ele>517.3</ele>
        <time>2025-01-31T15:26:58Z</time>
      </trkpt>
      <trkpt lat="48.19033" lon="6.84077">
        <ele>516.4</ele>
        <time>2025-01-31T15:27:06Z</time>
      </trkpt>
      <trkpt lat="48.19043" lon="6.84084">
        <ele>515.4</ele>
        <time>2025-01-31T15:27:14Z</time>
      </trkpt>
      <trkpt lat="48.19051" lon="6.84092">
        <ele>514.7</ele>
        <time>2025-01-31T15:27:21Z</time>
      </trkpt>
      <trkpt lat="48.19058" lon="6.84102">
        <ele>513.9</ele>
        <time>2025-01-31T15:27:27Z</time>
      </trkpt>
      <trkpt lat="48.19063" lon="6.84114">
        <ele>513.1</ele>
        <time>2025-01-31T15:27:35Z</time>
      </trkpt>
      <trkpt lat="48.19071" lon="6.84123">
        <ele>512.3</ele>
        <time>2025-01-31T15:27:44Z</time>
      </trkpt>
      <trkpt lat="48.19079" lon="6.84129">
        <ele>511.5</ele>
        <time>2025-01-31T15:27:53Z</time>
      </trkpt>
      <trkpt lat="48.19088" lon="6.84134">
        <ele>510.6</ele>
        <time>2025-01-31T15:28:03Z</time>
      </trkpt>
      <trkpt lat="48.19096" lon="6.84141">
        <ele>509.6</ele>
        <time>2025-01-31T15:28:10Z</time>
      </trkpt>
      <trkpt lat="48.19106" lon="6.84143">
        <ele>508.6</ele>
        <time>2025-01-31T15:28:17Z</time>
      </trkpt>
      <trkpt lat="48.19115" lon="6.84149">
        <ele>507.6</ele>
        <time>2025-01-31T15:28:25Z</time>
      </trkpt>
      <trkpt lat="48.19124" lon="6.84153">
        <ele>506.6</ele>
        <time>2025-01-31T15:28:33Z</time>
      </trkpt>
      <trkpt lat="48.19133" lon="6.84158">
        <ele>505.8</ele>
        <time>2025-01-31T15:28:42Z</time>
      </trkpt>
      <trkpt lat="48.19141" lon="6.84164">
        <ele>505</ele>
        <time>2025-01-31T15:28:50Z</time>
      </trkpt>
      <trkpt lat="48.19149" lon="6.8417">
        <ele>504.2</ele>
        <time>2025-01-31T15:28:57Z</time>
      </trkpt>
      <trkpt lat="48.19156" lon="6.84178">
        <ele>503.5</ele>
        <time>2025-01-31T15:29:06Z</time>
      </trkpt>
      <trkpt lat="48.19166" lon="6.84185">
        <ele>502.7</ele>
        <time>2025-01-31T15:29:13Z</time>
      </trkpt>
      <trkpt lat="48.19175" lon="6.84192">
        <ele>501.8</ele>
        <time>2025-01-31T15:29:20Z</time>
      </trkpt>
      <trkpt lat="48.19183" lon="6.842">
        <ele>501</ele>
        <time>2025-01-31T15:29:27Z</time>
      </trkpt>
      <trkpt lat="48.19191" lon="6.84209">
        <ele>500.1</ele>
        <time>2025-01-31T15:29:34Z</time>
      </trkpt>
      <trkpt lat="48.19199" lon="6.84218">
        <ele>499.2</ele>
        <time>2025-01-31T15:29:42Z</time>
      </trkpt>
      <trkpt lat="48.19206" lon="6.84228">
        <ele>498.4</ele>
        <time>2025-01-31T15:29:50Z</time>
      </trkpt>
      <trkpt lat="48.19211" lon="6.8424">
        <ele>497.7</ele>
        <time>2025-01-31T15:29:57Z</time>
      </trkpt>
      <trkpt lat="48.19218" lon="6.8425">
        <ele>497</ele>
        <time>2025-01-31T15:30:05Z</time>
      </trkpt>
      <trkpt lat="48.19225" lon="6.84261">
        <ele>496.3</ele>
        <time>2025-01-31T15:30:13Z</time>
      </trkpt>
      <trkpt lat="48.19231" lon="6.84273">
        <ele>495.8</ele>
        <time>2025-01-31T15:30:21Z</time>
      </trkpt>
      <trkpt lat="48.19234" lon="6.84286">
        <ele>495.3</ele>
        <time>2025-01-31T15:30:29Z</time>
      </trkpt>
      <trkpt lat="48.19236" lon="6.843">
        <ele>495</ele>
        <time>2025-01-31T15:30:37Z</time>
      </trkpt>
      <trkpt lat="48.19236" lon="6.84314">
        <ele>494.8</ele>
        <time>2025-01-31T15:30:46Z</time>
      </trkpt>
      <trkpt lat="48.19238" lon="6.84329">
        <ele>494.6</ele>
        <time>2025-01-31T15:30:54Z</time>
      </trkpt>
      <trkpt lat="48.19242" lon="6.84341">
        <ele>494.5</ele>
        <time>2025-01-31T15:31:02Z</time>
      </trkpt>
      <trkpt lat="48.19244" lon="6.84356">
        <ele>494.5</ele>
        <time>2025-01-31T15:31:10Z</time>
      </trkpt>
      <trkpt lat="48.19245" lon="6.84371">
        <ele>494.5</ele>
        <time>2025-01-31T15:31:17Z</time>
      </trkpt>
      <trkpt lat="48.19245" lon="6.84385">
        <ele>494.5</ele>
        <time>2025-01-31T15:31:24Z</time>
      </trkpt>
      <trkpt lat="48.19245" lon="6.84399">
        <ele>494.6</ele>
        <time>2025-01-31T15:31:31Z</time>
      </trkpt>
      <trkpt lat="48.19246" lon="6.84413">
        <ele>494.7</ele>
        <time>2025-01-31T15:31:40Z</time>
      </trkpt>
      <trkpt lat="48.19247" lon="6.84429">
        <ele>494.9</ele>
        <time>2025-01-31T15:31:48Z</time>
      </trkpt>
      <trkpt lat="48.19251" lon="6.84442">
        <ele>495</ele>
        <time>2025-01-31T15:31:55Z</time>
      </trkpt>
      <trkpt lat="48.19257" lon="6.84452">
        <ele>495</ele>
        <time>2025-01-31T15:32:02Z</time>
      </trkpt>
      <trkpt lat="48.19263" lon="6.84463">
        <ele>494.9</ele>
        <time>2025-01-31T15:32:09Z</time>
      </trkpt>
      <trkpt lat="48.1927" lon="6.84474">
        <ele>494.8</ele>
        <time>2025-01-31T15:32:17Z</time>
      </trkpt>
      <trkpt lat="48.19275" lon="6.84485">
        <ele>494.8</ele>
        <time>2025-01-31T15:32:25Z</time>
      </trkpt>
      <trkpt lat="48.1928" lon="6.84497">
        <ele>494.8</ele>
        <time>2025-01-31T15:32:31Z</time>
      </trkpt>
      <trkpt lat="48.19284" lon="6.8451">
        <ele>494.7</ele>
        <time>2025-01-31T15:32:41Z</time>
      </trkpt>
      <trkpt lat="48.1929" lon="6.84522">
        <ele>494.7</ele>
        <time>2025-01-31T15:32:48Z</time>
      </trkpt>
      <trkpt lat="48.19297" lon="6.84532">
        <ele>494.5</ele>
        <time>2025-01-31T15:32:56Z</time>
      </trkpt>
      <trkpt lat="48.19306" lon="6.84538">
        <ele>494.4</ele>
        <time>2025-01-31T15:33:03Z</time>
      </trkpt>
      <trkpt lat="48.19315" lon="6.84542">
        <ele>494.4</ele>
        <time>2025-01-31T15:33:12Z</time>
      </trkpt>
      <trkpt lat="48.19324" lon="6.84548">
        <ele>494.3</ele>
        <time>2025-01-31T15:33:21Z</time>
      </trkpt>
      <trkpt lat="48.19332" lon="6.84554">
        <ele>494.2</ele>
        <time>2025-01-31T15:33:27Z</time>
      </trkpt>
      <trkpt lat="48.19342" lon="6.84559">
        <ele>494</ele>
        <time>2025-01-31T15:33:33Z</time>
      </trkpt>
      <trkpt lat="48.19346" lon="6.84561">
        <ele>493.9</ele>
        <time>2025-01-31T15:33:39Z</time>
      </trkpt>
      <trkpt lat="48.19346" lon="6.84561">
        <ele>493.9</ele>
        <time>2025-01-31T15:33:40Z</time>
      </trkpt>
      <trkpt lat="48.19347" lon="6.84561">
        <ele>493.9</ele>
        <time>2025-01-31T15:33:41Z</time>
      </trkpt>
      <trkpt lat="48.19348" lon="6.84561">
        <ele>493.8</ele>
        <time>2025-01-31T15:33:42Z</time>
      </trkpt>
      <trkpt lat="48.19349" lon="6.84562">
        <ele>493.8</ele>
        <time>2025-01-31T15:33:43Z</time>
      </trkpt>
      <trkpt lat="48.19359" lon="6.84567">
        <ele>493.5</ele>
        <time>2025-01-31T15:33:50Z</time>
      </trkpt>
      <trkpt lat="48.19368" lon="6.84572">
        <ele>493.1</ele>
        <time>2025-01-31T15:33:56Z</time>
      </trkpt>
      <trkpt lat="48.19377" lon="6.84577">
        <ele>492.6</ele>
        <time>2025-01-31T15:34:03Z</time>
      </trkpt>
      <trkpt lat="48.19387" lon="6.84582">
        <ele>492</ele>
        <time>2025-01-31T15:34:10Z</time>
      </trkpt>
      <trkpt lat="48.19395" lon="6.84588">
        <ele>491.5</ele>
        <time>2025-01-31T15:34:17Z</time>
      </trkpt>
      <trkpt lat="48.19404" lon="6.84595">
        <ele>490.9</ele>
        <time>2025-01-31T15:34:26Z</time>
      </trkpt>
      <trkpt lat="48.19413" lon="6.846">
        <ele>490.3</ele>
        <time>2025-01-31T15:34:34Z</time>
      </trkpt>
      <trkpt lat="48.19422" lon="6.84603">
        <ele>489.8</ele>
        <time>2025-01-31T15:34:40Z</time>
      </trkpt>
      <trkpt lat="48.19431" lon="6.84609">
        <ele>489.3</ele>
        <time>2025-01-31T15:34:47Z</time>
      </trkpt>
      <trkpt lat="48.19439" lon="6.84616">
        <ele>488.8</ele>
        <time>2025-01-31T15:34:54Z</time>
      </trkpt>
      <trkpt lat="48.19448" lon="6.84622">
        <ele>488.3</ele>
        <time>2025-01-31T15:35:01Z</time>
      </trkpt>
      <trkpt lat="48.19456" lon="6.84632">
        <ele>487.8</ele>
        <time>2025-01-31T15:35:08Z</time>
      </trkpt>
      <trkpt lat="48.19459" lon="6.84646">
        <ele>487.6</ele>
        <time>2025-01-31T15:35:16Z</time>
      </trkpt>
      <trkpt lat="48.19456" lon="6.84661">
        <ele>487.4</ele>
        <time>2025-01-31T15:35:24Z</time>
      </trkpt>
      <trkpt lat="48.19454" lon="6.84675">
        <ele>487.2</ele>
        <time>2025-01-31T15:35:31Z</time>
      </trkpt>
      <trkpt lat="48.19453" lon="6.8469">
        <ele>487</ele>
        <time>2025-01-31T15:35:38Z</time>
      </trkpt>
      <trkpt lat="48.19451" lon="6.84704">
        <ele>486.8</ele>
        <time>2025-01-31T15:35:44Z</time>
      </trkpt>
      <trkpt lat="48.19449" lon="6.84718">
        <ele>486.8</ele>
        <time>2025-01-31T15:35:50Z</time>
      </trkpt>
      <trkpt lat="48.19449" lon="6.84733">
        <ele>486.8</ele>
        <time>2025-01-31T15:35:58Z</time>
      </trkpt>
      <trkpt lat="48.19449" lon="6.84748">
        <ele>486.9</ele>
        <time>2025-01-31T15:36:06Z</time>
      </trkpt>
      <trkpt lat="48.19448" lon="6.84763">
        <ele>487</ele>
        <time>2025-01-31T15:36:13Z</time>
      </trkpt>
      <trkpt lat="48.19447" lon="6.84778">
        <ele>487.1</ele>
        <time>2025-01-31T15:36:20Z</time>
      </trkpt>
      <trkpt lat="48.19446" lon="6.84792">
        <ele>487.2</ele>
        <time>2025-01-31T15:36:26Z</time>
      </trkpt>
      <trkpt lat="48.19445" lon="6.84807">
        <ele>487.2</ele>
        <time>2025-01-31T15:36:34Z</time>
      </trkpt>
      <trkpt lat="48.19443" lon="6.84822">
        <ele>487.2</ele>
        <time>2025-01-31T15:36:42Z</time>
      </trkpt>
      <trkpt lat="48.19443" lon="6.84837">
        <ele>487.2</ele>
        <time>2025-01-31T15:36:50Z</time>
      </trkpt>
      <trkpt lat="48.19443" lon="6.8485">
        <ele>487.2</ele>
        <time>2025-01-31T15:36:56Z</time>
      </trkpt>
      <trkpt lat="48.19443" lon="6.84865">
        <ele>487.1</ele>
        <time>2025-01-31T15:37:03Z</time>
      </trkpt>
      <trkpt lat="48.19444" lon="6.8488">
        <ele>486.9</ele>
        <time>2025-01-31T15:37:10Z</time>
      </trkpt>
      <trkpt lat="48.19446" lon="6.84895">
        <ele>486.8</ele>
        <time>2025-01-31T15:37:17Z</time>
      </trkpt>
      <trkpt lat="48.19448" lon="6.84908">
        <ele>486.7</ele>
        <time>2025-01-31T15:37:25Z</time>
      </trkpt>
      <trkpt lat="48.19451" lon="6.84923">
        <ele>486.7</ele>
        <time>2025-01-31T15:37:33Z</time>
      </trkpt>
      <trkpt lat="48.19454" lon="6.84938">
        <ele>486.6</ele>
        <time>2025-01-31T15:37:41Z</time>
      </trkpt>
      <trkpt lat="48.19456" lon="6.84952">
        <ele>486.5</ele>
        <time>2025-01-31T15:37:48Z</time>
      </trkpt>
      <trkpt lat="48.19458" lon="6.84967">
        <ele>486.4</ele>
        <time>2025-01-31T15:37:56Z</time>
      </trkpt>
      <trkpt lat="48.19459" lon="6.8498">
        <ele>486.3</ele>
        <time>2025-01-31T15:38:03Z</time>
      </trkpt>
      <trkpt lat="48.1946" lon="6.84994">
        <ele>486.1</ele>
        <time>2025-01-31T15:38:10Z</time>
      </trkpt>
      <trkpt lat="48.19461" lon="6.85009">
        <ele>486</ele>
        <time>2025-01-31T15:38:18Z</time>
      </trkpt>
      <trkpt lat="48.19463" lon="6.85024">
        <ele>485.9</ele>
        <time>2025-01-31T15:38:26Z</time>
      </trkpt>
      <trkpt lat="48.19464" lon="6.85038">
        <ele>485.9</ele>
        <time>2025-01-31T15:38:33Z</time>
      </trkpt>
      <trkpt lat="48.19465" lon="6.85052">
        <ele>485.9</ele>
        <time>2025-01-31T15:38:40Z</time>
      </trkpt>
      <trkpt lat="48.19466" lon="6.85067">
        <ele>485.8</ele>
        <time>2025-01-31T15:38:47Z</time>
      </trkpt>
      <trkpt lat="48.19467" lon="6.8508">
        <ele>485.8</ele>
        <time>2025-01-31T15:38:54Z</time>
      </trkpt>
      <trkpt lat="48.19469" lon="6.85095">
        <ele>485.7</ele>
        <time>2025-01-31T15:39:02Z</time>
      </trkpt>
      <trkpt lat="48.19471" lon="6.85108">
        <ele>485.6</ele>
        <time>2025-01-31T15:39:10Z</time>
      </trkpt>
      <trkpt lat="48.19474" lon="6.85122">
        <ele>485.5</ele>
        <time>2025-01-31T15:39:17Z</time>
      </trkpt>
      <trkpt lat="48.19476" lon="6.85135">
        <ele>485.5</ele>
        <time>2025-01-31T15:39:24Z</time>
      </trkpt>
      <trkpt lat="48.19479" lon="6.85148">
        <ele>485.5</ele>
        <time>2025-01-31T15:39:31Z</time>
      </trkpt>
      <trkpt lat="48.19482" lon="6.85161">
        <ele>485.6</ele>
        <time>2025-01-31T15:39:38Z</time>
      </trkpt>
      <trkpt lat="48.19483" lon="6.85176">
        <ele>485.7</ele>
        <time>2025-01-31T15:39:45Z</time>
      </trkpt>
      <trkpt lat="48.19485" lon="6.8519">
        <ele>485.9</ele>
        <time>2025-01-31T15:39:52Z</time>
      </trkpt>
      <trkpt lat="48.19487" lon="6.85203">
        <ele>486</ele>
        <time>2025-01-31T15:39:59Z</time>
      </trkpt>
      <trkpt lat="48.1949" lon="6.85216">
        <ele>486.1</ele>
        <time>2025-01-31T15:40:06Z</time>
      </trkpt>
      <trkpt lat="48.19492" lon="6.85229">
        <ele>486.2</ele>
        <time>2025-01-31T15:40:13Z</time>
      </trkpt>
      <trkpt lat="48.19494" lon="6.85243">
        <ele>486.3</ele>
        <time>2025-01-31T15:40:20Z</time>
      </trkpt>
      <trkpt lat="48.19496" lon="6.85257">
        <ele>486.3</ele>
        <time>2025-01-31T15:40:28Z</time>
      </trkpt>
      <trkpt lat="48.19499" lon="6.85271">
        <ele>486.3</ele>
        <time>2025-01-31T15:40:36Z</time>
      </trkpt>
      <trkpt lat="48.19503" lon="6.85284">
        <ele>486.3</ele>
        <time>2025-01-31T15:40:44Z</time>
      </trkpt>
      <trkpt lat="48.19508" lon="6.85297">
        <ele>486.3</ele>
        <time>2025-01-31T15:40:51Z</time>
      </trkpt>
      <trkpt lat="48.19514" lon="6.85309">
        <ele>486.3</ele>
        <time>2025-01-31T15:40:59Z</time>
      </trkpt>
      <trkpt lat="48.19523" lon="6.85315">
        <ele>486.4</ele>
        <time>2025-01-31T15:41:06Z</time>
      </trkpt>
      <trkpt lat="48.19531" lon="6.85323">
        <ele>486.5</ele>
        <time>2025-01-31T15:41:14Z</time>
      </trkpt>
      <trkpt lat="48.1954" lon="6.85328">
        <ele>486.6</ele>
        <time>2025-01-31T15:41:21Z</time>
      </trkpt>
      <trkpt lat="48.19549" lon="6.85336">
        <ele>486.7</ele>
        <time>2025-01-31T15:41:28Z</time>
      </trkpt>
      <trkpt lat="48.19558" lon="6.85337">
        <ele>486.8</ele>
        <time>2025-01-31T15:41:36Z</time>
      </trkpt>
      <trkpt lat="48.19555" lon="6.85351">
        <ele>486.9</ele>
        <time>2025-01-31T15:41:52Z</time>
      </trkpt>
      <trkpt lat="48.19553" lon="6.85364">
        <ele>487</ele>
        <time>2025-01-31T15:41:59Z</time>
      </trkpt>
      <trkpt lat="48.1955" lon="6.85379">
        <ele>487.1</ele>
        <time>2025-01-31T15:42:06Z</time>
      </trkpt>
      <trkpt lat="48.19545" lon="6.85392">
        <ele>487.3</ele>
        <time>2025-01-31T15:42:12Z</time>
      </trkpt>
      <trkpt lat="48.1954" lon="6.85404">
        <ele>487.5</ele>
        <time>2025-01-31T15:42:20Z</time>
      </trkpt>
      <trkpt lat="48.19535" lon="6.85416">
        <ele>487.7</ele>
        <time>2025-01-31T15:42:28Z</time>
      </trkpt>
      <trkpt lat="48.19533" lon="6.8543">
        <ele>488</ele>
        <time>2025-01-31T15:42:36Z</time>
      </trkpt>
      <trkpt lat="48.19536" lon="6.85442">
        <ele>488.1</ele>
        <time>2025-01-31T15:42:45Z</time>
      </trkpt>
      <trkpt lat="48.19545" lon="6.85461">
        <ele>488.3</ele>
        <time>2025-01-31T15:42:52Z</time>
      </trkpt>
      <trkpt lat="48.19547" lon="6.85469">
        <ele>488.3</ele>
        <time>2025-01-31T15:42:59Z</time>
      </trkpt>
      <trkpt lat="48.1955" lon="6.85476">
        <ele>488.4</ele>
        <time>2025-01-31T15:43:06Z</time>
      </trkpt>
      <trkpt lat="48.19552" lon="6.85484">
        <ele>488.4</ele>
        <time>2025-01-31T15:43:13Z</time>
      </trkpt>
      <trkpt lat="48.19554" lon="6.85491">
        <ele>488.4</ele>
        <time>2025-01-31T15:43:20Z</time>
      </trkpt>
      <trkpt lat="48.19557" lon="6.85499">
        <ele>488.4</ele>
        <time>2025-01-31T15:43:21Z</time>
      </trkpt>
      <trkpt lat="48.19559" lon="6.85507">
        <ele>488.3</ele>
        <time>2025-01-31T15:43:21Z</time>
      </trkpt>
      <trkpt lat="48.19559" lon="6.85507">
        <ele>488.3</ele>
        <time>2025-01-31T15:43:21Z</time>
      </trkpt>
    </trkseg>
  </trk>
</gpx>